Observation data for Persimmon Gap on 07/03/2020      Previous  Date  Next       Current Mesonet Observations  Soil Data  Daily Summary Page  Observations in Plain Language
KPG1 030500Z 25002KT 25/19 A3002 RMK A01 T02460187  RH  070%=      5-min Rain = 0
KPG1 030501Z 25001KT 25/19 A3002 RMK A01 T02460188  RH  070%=      5-min Rain = 0
KPG1 030502Z 25002KT 25/19 A3002 RMK A01 T02460188  RH  070%=      5-min Rain = 0
KPG1 030503Z 25002KT 25/19 A3002 RMK A01 T02460188  RH  070%=      5-min Rain = 0
KPG1 030504Z 24001KT 25/19 A3002 RMK A01 T02460188  RH  070%=      5-min Rain = 0
KPG1 030505Z 25002KT 25/19 A3002 RMK A01 T02460187  RH  070%=      5-min Rain = 0
KPG1 030506Z 26002KT 25/19 A3002 RMK A01 T02460188  RH  070%=      5-min Rain = 0
KPG1 030507Z 25002KT 25/19 A3002 RMK A01 T02460187  RH  070%=      5-min Rain = 0
KPG1 030508Z 26002KT 25/19 A3002 RMK A01 T02470187  RH  070%=      5-min Rain = 0
KPG1 030509Z 26001KT 25/19 A3002 RMK A01 T02470187  RH  069%=      5-min Rain = 0
KPG1 030510Z 25001KT 25/19 A3002 RMK A01 T02470187  RH  069%=      5-min Rain = 0
KPG1 030511Z 23000KT 25/19 A3002 RMK A01 T02470186  RH  069%=      5-min Rain = 0
KPG1 030512Z 22001KT 25/19 A3002 RMK A01 T02470186  RH  069%=      5-min Rain = 0
KPG1 030513Z 24001KT 25/19 A3002 RMK A01 T02470186  RH  069%=      5-min Rain = 0
KPG1 030514Z 27001KT 25/19 A3002 RMK A01 T02470186  RH  069%=      5-min Rain = 0
KPG1 030515Z 29001KT 25/19 A3002 RMK A01 T02480187  RH  069%=      5-min Rain = 0
KPG1 030516Z 29000KT 25/19 A3002 RMK A01 T02480186  RH  069%=      5-min Rain = 0
KPG1 030517Z 29001KT 25/19 A3002 RMK A01 T02470186  RH  069%=      5-min Rain = 0
KPG1 030518Z 25001KT 25/19 A3002 RMK A01 T02480186  RH  068%=      5-min Rain = 0
KPG1 030519Z 24001KT 25/19 A3002 RMK A01 T02480185  RH  068%=      5-min Rain = 0
KPG1 030520Z 23001KT 25/19 A3002 RMK A01 T02480185  RH  068%=      5-min Rain = 0
KPG1 030521Z 23000KT 25/19 A3002 RMK A01 T02480185  RH  068%=      5-min Rain = 0
KPG1 030522Z 23000KT 25/19 A3002 RMK A01 T02480185  RH  068%=      5-min Rain = 0
KPG1 030523Z 22001KT 25/19 A3002 RMK A01 T02480185  RH  068%=      5-min Rain = 0
KPG1 030524Z 22002KT 25/19 A3002 RMK A01 T02480185  RH  068%=      5-min Rain = 0
KPG1 030525Z 21001KT 25/19 A3002 RMK A01 T02480185  RH  068%=      5-min Rain = 0
KPG1 030526Z 21001KT 25/19 A3002 RMK A01 T02480185  RH  068%=      5-min Rain = 0
KPG1 030527Z 21001KT 25/19 A3002 RMK A01 T02480185  RH  068%=      5-min Rain = 0
KPG1 030528Z 22001KT 25/19 A3002 RMK A01 T02480185  RH  068%=      5-min Rain = 0
KPG1 030529Z 22000KT 25/19 A3002 RMK A01 T02480185  RH  068%=      5-min Rain = 0
KPG1 030530Z 00000KT 25/19 A3002 RMK A01 T02480185  RH  068%=      5-min Rain = 0
KPG1 030531Z 00000KT 25/19 A3002 RMK A01 T02470185  RH  068%=      5-min Rain = 0
KPG1 030532Z 28000KT 25/19 A3002 RMK A01 T02470185  RH  068%=      5-min Rain = 0
KPG1 030533Z 29001KT 25/18 A3002 RMK A01 T02470184  RH  068%=      5-min Rain = 0
KPG1 030534Z 32001KT 25/18 A3002 RMK A01 T02470184  RH  068%=      5-min Rain = 0
KPG1 030535Z 32001KT 25/18 A3002 RMK A01 T02480184  RH  068%=      5-min Rain = 0
KPG1 030536Z 32000KT 25/18 A3002 RMK A01 T02470184  RH  068%=      5-min Rain = 0
KPG1 030537Z 00000KT 25/18 A3002 RMK A01 T02480184  RH  068%=      5-min Rain = 0
KPG1 030538Z 05000KT 25/18 A3002 RMK A01 T02480184  RH  068%=      5-min Rain = 0
KPG1 030539Z 04001KT 25/18 A3002 RMK A01 T02480184  RH  068%=      5-min Rain = 0
KPG1 030540Z 03002KT 25/18 A3002 RMK A01 T02480184  RH  068%=      5-min Rain = 0
KPG1 030541Z 02002KT 25/18 A3002 RMK A01 T02480184  RH  068%=      5-min Rain = 0
KPG1 030542Z 02002KT 25/18 A3002 RMK A01 T02470184  RH  068%=      5-min Rain = 0
KPG1 030543Z 02001KT 25/18 A3002 RMK A01 T02470184  RH  068%=      5-min Rain = 0
KPG1 030544Z 03001KT 25/18 A3002 RMK A01 T02470184  RH  068%=      5-min Rain = 0
KPG1 030545Z 03002KT 25/18 A3002 RMK A01 T02470184  RH  068%=      5-min Rain = 0
KPG1 030546Z 03001KT 25/18 A3002 RMK A01 T02470184  RH  068%=      5-min Rain = 0
KPG1 030547Z 03002KT 25/18 A3002 RMK A01 T02460184  RH  068%=      5-min Rain = 0
KPG1 030548Z 03001KT 25/18 A3002 RMK A01 T02470184  RH  068%=      5-min Rain = 0
KPG1 030549Z 03001KT 25/18 A3002 RMK A01 T02470184  RH  068%=      5-min Rain = 0
KPG1 030550Z 03001KT 25/18 A3002 RMK A01 T02470184  RH  068%=      5-min Rain = 0
KPG1 030551Z 03001KT 25/18 A3002 RMK A01 T02470184  RH  068%=      5-min Rain = 0
KPG1 030552Z 03001KT 25/18 A3002 RMK A01 T02470184  RH  068%=      5-min Rain = 0
KPG1 030553Z 04001KT 25/18 A3002 RMK A01 T02470184  RH  068%=      5-min Rain = 0
KPG1 030554Z 04002KT 25/18 A3002 RMK A01 T02470184  RH  068%=      5-min Rain = 0
KPG1 030555Z 04003KT 25/18 A3002 RMK A01 T02470184  RH  068%=      5-min Rain = 0
KPG1 030556Z 03004KT 25/18 A3002 RMK A01 T02470184  RH  068%=      5-min Rain = 0
KPG1 030557Z 03004KT 25/18 A3002 RMK A01 T02470184  RH  068%=      5-min Rain = 0
KPG1 030558Z 04003KT 25/18 A3002 RMK A01 T02470184  RH  068%=      5-min Rain = 0
KPG1 030559Z 05002KT 25/18 A3002 RMK A01 T02470183  RH  067%=      5-min Rain = 0
KPG1 030600Z 06001KT 25/18 A3002 RMK A01 T02470182  RH  067%=      5-min Rain = 0
KPG1 030601Z 06000KT 25/18 A3002 RMK A01 T02470183  RH  067%=      5-min Rain = 0
KPG1 030602Z 04001KT 25/18 A3002 RMK A01 T02480183  RH  067%=      5-min Rain = 0
KPG1 030603Z 04001KT 25/18 A3002 RMK A01 T02470182  RH  067%=      5-min Rain = 0
KPG1 030604Z 03001KT 25/18 A3002 RMK A01 T02480181  RH  066%=      5-min Rain = 0
KPG1 030605Z 00000KT 25/18 A3002 RMK A01 T02480181  RH  066%=      5-min Rain = 0
KPG1 030606Z 00000KT 25/18 A3002 RMK A01 T02480181  RH  066%=      5-min Rain = 0
KPG1 030607Z 00000KT 25/18 A3002 RMK A01 T02480181  RH  066%=      5-min Rain = 0
KPG1 030608Z 04000KT 25/18 A3002 RMK A01 T02490182  RH  066%=      5-min Rain = 0
KPG1 030609Z 04001KT 25/18 A3002 RMK A01 T02480182  RH  066%=      5-min Rain = 0
KPG1 030610Z 03001KT 25/18 A3002 RMK A01 T02480181  RH  066%=      5-min Rain = 0
KPG1 030611Z 03001KT 25/18 A3002 RMK A01 T02480182  RH  066%=      5-min Rain = 0
KPG1 030612Z 02001KT 25/18 A3002 RMK A01 T02480181  RH  066%=      5-min Rain = 0
KPG1 030613Z 01001KT 25/18 A3002 RMK A01 T02480181  RH  066%=      5-min Rain = 0
KPG1 030614Z 00002KT 25/18 A3002 RMK A01 T02480180  RH  066%=      5-min Rain = 0
KPG1 030615Z 01002KT 25/18 A3002 RMK A01 T02480179  RH  065%=      5-min Rain = 0
KPG1 030616Z 01002KT 25/18 A3002 RMK A01 T02480177  RH  065%=      5-min Rain = 0
KPG1 030617Z 01002KT 25/18 A3002 RMK A01 T02480177  RH  065%=      5-min Rain = 0
KPG1 030618Z 00001KT 25/18 A3002 RMK A01 T02480179  RH  065%=      5-min Rain = 0
KPG1 030619Z 12001KT 25/18 A3002 RMK A01 T02480180  RH  066%=      5-min Rain = 0
KPG1 030620Z 13001KT 25/18 A3002 RMK A01 T02470183  RH  067%=      5-min Rain = 0
KPG1 030621Z 00000KT 25/18 A3002 RMK A01 T02470182  RH  067%=      5-min Rain = 0
KPG1 030622Z 35001KT 25/18 A3002 RMK A01 T02470179  RH  066%=      5-min Rain = 0
KPG1 030623Z 35001KT 25/18 A3002 RMK A01 T02470178  RH  065%=      5-min Rain = 0
KPG1 030624Z 35002KT 25/18 A3002 RMK A01 T02470177  RH  065%=      5-min Rain = 0
KPG1 030625Z 00002KT 25/18 A3002 RMK A01 T02480178  RH  065%=      5-min Rain = 0
KPG1 030626Z 00001KT 25/18 A3002 RMK A01 T02480178  RH  065%=      5-min Rain = 0
KPG1 030627Z 01001KT 25/18 A3002 RMK A01 T02490177  RH  064%=      5-min Rain = 0
KPG1 030628Z 01001KT 25/18 A3002 RMK A01 T02490177  RH  064%=      5-min Rain = 0
KPG1 030629Z 00000KT 25/18 A3002 RMK A01 T02490177  RH  064%=      5-min Rain = 0
KPG1 030630Z 00000KT 25/18 A3002 RMK A01 T02500178  RH  064%=      5-min Rain = 0
KPG1 030631Z 21000KT 25/18 A3002 RMK A01 T02490182  RH  066%=      5-min Rain = 0
KPG1 030632Z 20001KT 25/18 A3001 RMK A01 T02490184  RH  067%=      5-min Rain = 0
KPG1 030633Z 20001KT 25/18 A3001 RMK A01 T02480184  RH  068%=      5-min Rain = 0
KPG1 030634Z 22002KT 25/18 A3001 RMK A01 T02470184  RH  068%=      5-min Rain = 0
KPG1 030635Z 23002KT 25/19 A3001 RMK A01 T02460185  RH  069%=      5-min Rain = 0
KPG1 030636Z 23003KT 24/19 A3002 RMK A01 T02440185  RH  069%=      5-min Rain = 0
KPG1 030637Z 23002KT 24/19 A3002 RMK A01 T02430185  RH  070%=      5-min Rain = 0
KPG1 030638Z 24002KT 24/19 A3002 RMK A01 T02420185  RH  070%=      5-min Rain = 0
KPG1 030639Z 24002KT 24/19 A3002 RMK A01 T02420185  RH  071%=      5-min Rain = 0
KPG1 030640Z 25002KT 24/19 A3002 RMK A01 T02410185  RH  071%=      5-min Rain = 0
KPG1 030641Z 26002KT 24/19 A3002 RMK A01 T02410185  RH  071%=      5-min Rain = 0
KPG1 030642Z 27001KT 24/19 A3002 RMK A01 T02410185  RH  071%=      5-min Rain = 0
KPG1 030643Z 28001KT 24/19 A3002 RMK A01 T02420185  RH  071%=      5-min Rain = 0
KPG1 030644Z 29001KT 24/19 A3002 RMK A01 T02420185  RH  070%=      5-min Rain = 0
KPG1 030645Z 29000KT 24/18 A3002 RMK A01 T02420184  RH  070%=      5-min Rain = 0
KPG1 030646Z 00000KT 24/19 A3002 RMK A01 T02430185  RH  070%=      5-min Rain = 0
KPG1 030647Z 00000KT 24/18 A3002 RMK A01 T02430184  RH  070%=      5-min Rain = 0
KPG1 030648Z 00000KT 24/18 A3002 RMK A01 T02430184  RH  069%=      5-min Rain = 0
KPG1 030649Z 00000KT 24/18 A3002 RMK A01 T02430184  RH  070%=      5-min Rain = 0
KPG1 030650Z 00000KT 24/18 A3002 RMK A01 T02430184  RH  070%=      5-min Rain = 0
KPG1 030651Z 00000KT 24/18 A3002 RMK A01 T02420184  RH  070%=      5-min Rain = 0
KPG1 030652Z 00000KT 24/18 A3002 RMK A01 T02420184  RH  070%=      5-min Rain = 0
KPG1 030653Z 00000KT 24/18 A3002 RMK A01 T02410184  RH  070%=      5-min Rain = 0
KPG1 030654Z 00000KT 24/19 A3002 RMK A01 T02420185  RH  071%=      5-min Rain = 0
KPG1 030655Z 01000KT 24/19 A3002 RMK A01 T02420185  RH  071%=      5-min Rain = 0
KPG1 030656Z 02001KT 24/18 A3002 RMK A01 T02420184  RH  070%=      5-min Rain = 0
KPG1 030657Z 03001KT 24/18 A3002 RMK A01 T02420184  RH  070%=      5-min Rain = 0
KPG1 030658Z 03000KT 24/18 A3002 RMK A01 T02420183  RH  070%=      5-min Rain = 0
KPG1 030659Z 04000KT 24/18 A3002 RMK A01 T02420183  RH  070%=      5-min Rain = 0
KPG1 030700Z 00000KT 24/18 A3002 RMK A01 T02410182  RH  069%=      5-min Rain = 0
KPG1 030701Z 00000KT 24/18 A3002 RMK A01 T02410182  RH  069%=      5-min Rain = 0
KPG1 030702Z 02000KT 24/18 A3002 RMK A01 T02410182  RH  069%=      5-min Rain = 0
KPG1 030703Z 02001KT 24/18 A3002 RMK A01 T02410181  RH  069%=      5-min Rain = 0
KPG1 030704Z 02001KT 24/18 A3002 RMK A01 T02410181  RH  069%=      5-min Rain = 0
KPG1 030705Z 04001KT 24/18 A3002 RMK A01 T02410181  RH  069%=      5-min Rain = 0
KPG1 030706Z 04000KT 24/18 A3002 RMK A01 T02410181  RH  069%=      5-min Rain = 0
KPG1 030707Z 00000KT 24/18 A3002 RMK A01 T02410181  RH  069%=      5-min Rain = 0
KPG1 030708Z 00000KT 24/18 A3002 RMK A01 T02410180  RH  069%=      5-min Rain = 0
KPG1 030709Z 00000KT 24/18 A3002 RMK A01 T02410180  RH  069%=      5-min Rain = 0
KPG1 030710Z 00000KT 24/18 A3002 RMK A01 T02410181  RH  069%=      5-min Rain = 0
KPG1 030711Z 00000KT 24/18 A3002 RMK A01 T02410183  RH  070%=      5-min Rain = 0
KPG1 030712Z 21001KT 24/18 A3002 RMK A01 T02410182  RH  069%=      5-min Rain = 0
KPG1 030713Z 23002KT 24/18 A3002 RMK A01 T02410181  RH  069%=      5-min Rain = 0
KPG1 030714Z 24002KT 24/18 A3002 RMK A01 T02420181  RH  069%=      5-min Rain = 0
KPG1 030715Z 24003KT 24/18 A3002 RMK A01 T02420180  RH  069%=      5-min Rain = 0
KPG1 030716Z 24003KT 24/18 A3002 RMK A01 T02410181  RH  069%=      5-min Rain = 0
KPG1 030717Z 25003KT 24/18 A3001 RMK A01 T02410182  RH  069%=      5-min Rain = 0
KPG1 030718Z 25002KT 24/18 A3001 RMK A01 T02410182  RH  069%=      5-min Rain = 0
KPG1 030719Z 25002KT 24/18 A3001 RMK A01 T02410182  RH  070%=      5-min Rain = 0
KPG1 030720Z 25002KT 24/18 A3001 RMK A01 T02410183  RH  070%=      5-min Rain = 0
KPG1 030721Z 24002KT 24/18 A3001 RMK A01 T02410184  RH  070%=      5-min Rain = 0
KPG1 030722Z 25002KT 24/18 A3001 RMK A01 T02410184  RH  070%=      5-min Rain = 0
KPG1 030723Z 25002KT 24/18 A3001 RMK A01 T02410183  RH  070%=      5-min Rain = 0
KPG1 030724Z 25003KT 24/18 A3001 RMK A01 T02420182  RH  069%=      5-min Rain = 0
KPG1 030725Z 24002KT 24/18 A3001 RMK A01 T02420182  RH  069%=      5-min Rain = 0
KPG1 030726Z 23002KT 24/18 A3001 RMK A01 T02430182  RH  069%=      5-min Rain = 0
KPG1 030727Z 22002KT 24/18 A3001 RMK A01 T02420182  RH  069%=      5-min Rain = 0
KPG1 030728Z 23001KT 24/18 A3001 RMK A01 T02430181  RH  069%=      5-min Rain = 0
KPG1 030729Z 23001KT 24/18 A3001 RMK A01 T02430181  RH  068%=      5-min Rain = 0
KPG1 030730Z 24001KT 24/18 A3001 RMK A01 T02430181  RH  068%=      5-min Rain = 0
KPG1 030731Z 24001KT 24/18 A3001 RMK A01 T02430181  RH  068%=      5-min Rain = 0
KPG1 030732Z 23001KT 24/18 A3001 RMK A01 T02440181  RH  068%=      5-min Rain = 0
KPG1 030733Z 21001KT 24/18 A3001 RMK A01 T02430181  RH  068%=      5-min Rain = 0
KPG1 030734Z 20001KT 24/18 A3001 RMK A01 T02430180  RH  068%=      5-min Rain = 0
KPG1 030735Z 18001KT 24/18 A3001 RMK A01 T02420180  RH  068%=      5-min Rain = 0
KPG1 030736Z 25001KT 24/18 A3001 RMK A01 T02410180  RH  069%=      5-min Rain = 0
KPG1 030737Z 25000KT 24/18 A3001 RMK A01 T02410180  RH  069%=      5-min Rain = 0
KPG1 030738Z 26000KT 24/18 A3001 RMK A01 T02410179  RH  068%=      5-min Rain = 0
KPG1 030739Z 25000KT 24/18 A3001 RMK A01 T02410179  RH  068%=      5-min Rain = 0
KPG1 030740Z 20001KT 24/18 A3001 RMK A01 T02410179  RH  068%=      5-min Rain = 0
KPG1 030741Z 21001KT 24/18 A3001 RMK A01 T02410180  RH  068%=      5-min Rain = 0
KPG1 030742Z 22002KT 24/18 A3001 RMK A01 T02410179  RH  068%=      5-min Rain = 0
KPG1 030743Z 24001KT 24/18 A3001 RMK A01 T02420178  RH  068%=      5-min Rain = 0
KPG1 030744Z 21001KT 24/18 A3001 RMK A01 T02420179  RH  068%=      5-min Rain = 0
KPG1 030745Z 20001KT 24/18 A3001 RMK A01 T02420180  RH  068%=      5-min Rain = 0
KPG1 030746Z 19001KT 24/18 A30 RMK A01 T02420180  RH  068%=      5-min Rain = 0
KPG1 030747Z 19001KT 24/18 A30 RMK A01 T02410180  RH  069%=      5-min Rain = 0
KPG1 030748Z 21001KT 24/18 A30 RMK A01 T02410180  RH  069%=      5-min Rain = 0
KPG1 030749Z 20001KT 24/18 A30 RMK A01 T02410180  RH  069%=      5-min Rain = 0
KPG1 030750Z 19001KT 24/18 A30 RMK A01 T02410181  RH  069%=      5-min Rain = 0
KPG1 030751Z 16001KT 24/18 A30 RMK A01 T02410181  RH  069%=      5-min Rain = 0
KPG1 030752Z 15000KT 24/18 A30 RMK A01 T02410181  RH  069%=      5-min Rain = 0
KPG1 030753Z 15001KT 24/18 A30 RMK A01 T02410181  RH  069%=      5-min Rain = 0
KPG1 030754Z 16001KT 24/18 A30 RMK A01 T02420181  RH  069%=      5-min Rain = 0
KPG1 030755Z 16001KT 24/18 A30 RMK A01 T02420180  RH  068%=      5-min Rain = 0
KPG1 030756Z 14001KT 24/18 A30 RMK A01 T02430180  RH  068%=      5-min Rain = 0
KPG1 030757Z 10000KT 24/18 A30 RMK A01 T02440180  RH  068%=      5-min Rain = 0
KPG1 030758Z 05001KT 24/18 A30 RMK A01 T02440180  RH  068%=      5-min Rain = 0
KPG1 030759Z 05001KT 24/18 A30 RMK A01 T02420180  RH  068%=      5-min Rain = 0
KPG1 030800Z 05001KT 24/18 A30 RMK A01 T02410179  RH  068%=      5-min Rain = 0
KPG1 030801Z 04001KT 24/18 A30 RMK A01 T02400179  RH  069%=      5-min Rain = 0
KPG1 030802Z 06001KT 24/18 A30 RMK A01 T02390180  RH  069%=      5-min Rain = 0
KPG1 030803Z 08001KT 24/18 A30 RMK A01 T02390180  RH  070%=      5-min Rain = 0
KPG1 030804Z 04001KT 24/18 A30 RMK A01 T02390180  RH  070%=      5-min Rain = 0
KPG1 030805Z 03001KT 24/18 A30 RMK A01 T02390181  RH  070%=      5-min Rain = 0
KPG1 030806Z 03002KT 24/18 A30 RMK A01 T02390181  RH  070%=      5-min Rain = 0
KPG1 030807Z 06003KT 24/18 A30 RMK A01 T02390181  RH  070%=      5-min Rain = 0
KPG1 030808Z 05002KT 24/18 A30 RMK A01 T02400181  RH  070%=      5-min Rain = 0
KPG1 030809Z 06002KT 24/18 A30 RMK A01 T02410181  RH  069%=      5-min Rain = 0
KPG1 030810Z 06002KT 24/18 A30 RMK A01 T02410180  RH  069%=      5-min Rain = 0
KPG1 030811Z 04002KT 24/18 A30 RMK A01 T02410180  RH  069%=      5-min Rain = 0
KPG1 030812Z 05002KT 24/18 A30 RMK A01 T02420180  RH  068%=      5-min Rain = 0
KPG1 030813Z 06002KT 24/18 A30 RMK A01 T02420180  RH  068%=      5-min Rain = 0
KPG1 030814Z 06002KT 24/18 A30 RMK A01 T02430180  RH  068%=      5-min Rain = 0
KPG1 030815Z 07003KT 24/18 A30 RMK A01 T02420179  RH  068%=      5-min Rain = 0
KPG1 030816Z 06003KT 24/18 A30 RMK A01 T02430180  RH  068%=      5-min Rain = 0
KPG1 030817Z 05002KT 24/18 A30 RMK A01 T02430179  RH  068%=      5-min Rain = 0
KPG1 030818Z 05001KT 24/18 A30 RMK A01 T02430179  RH  068%=      5-min Rain = 0
KPG1 030819Z 05002KT 24/18 A30 RMK A01 T02430179  RH  067%=      5-min Rain = 0
KPG1 030820Z 07003KT 24/18 A30 RMK A01 T02430179  RH  067%=      5-min Rain = 0
KPG1 030821Z 05003KT 24/18 A30 RMK A01 T02430179  RH  067%=      5-min Rain = 0
KPG1 030822Z 05002KT 24/18 A30 RMK A01 T02430179  RH  067%=      5-min Rain = 0
KPG1 030823Z 06003KT 24/18 A30 RMK A01 T02430179  RH  067%=      5-min Rain = 0
KPG1 030824Z 07002KT 24/18 A30 RMK A01 T02440179  RH  067%=      5-min Rain = 0
KPG1 030825Z 07002KT 24/18 A30 RMK A01 T02440179  RH  067%=      5-min Rain = 0
KPG1 030826Z 09002KT 24/18 A30 RMK A01 T02440179  RH  067%=      5-min Rain = 0
KPG1 030827Z 09001KT 25/18 A30 RMK A01 T02450179  RH  067%=      5-min Rain = 0
KPG1 030828Z 06001KT 25/18 A30 RMK A01 T02460179  RH  066%=      5-min Rain = 0
KPG1 030829Z 05001KT 25/18 A30 RMK A01 T02460179  RH  066%=      5-min Rain = 0
KPG1 030830Z 05001KT 25/18 A30 RMK A01 T02470179  RH  066%=      5-min Rain = 0
KPG1 030831Z 06001KT 25/18 A30 RMK A01 T02470179  RH  066%=      5-min Rain = 0
KPG1 030832Z 07001KT 25/18 A30 RMK A01 T02470179  RH  066%=      5-min Rain = 0
KPG1 030833Z 00000KT 25/18 A30 RMK A01 T02470179  RH  066%=      5-min Rain = 0
KPG1 030834Z 00000KT 25/18 A30 RMK A01 T02480179  RH  066%=      5-min Rain = 0
KPG1 030835Z 34001KT 25/18 A30 RMK A01 T02470179  RH  066%=      5-min Rain = 0
KPG1 030836Z 01001KT 25/18 A30 RMK A01 T02470179  RH  066%=      5-min Rain = 0
KPG1 030837Z 35001KT 25/18 A30 RMK A01 T02470178  RH  066%=      5-min Rain = 0
KPG1 030838Z 34000KT 25/18 A30 RMK A01 T02470178  RH  065%=      5-min Rain = 0
KPG1 030839Z 00000KT 25/18 A30 RMK A01 T02480179  RH  066%=      5-min Rain = 0
KPG1 030840Z 00000KT 25/18 A30 RMK A01 T02480180  RH  066%=      5-min Rain = 0
KPG1 030841Z 32000KT 25/18 A30 RMK A01 T02470179  RH  066%=      5-min Rain = 0
KPG1 030842Z 35000KT 25/18 A30 RMK A01 T02460179  RH  066%=      5-min Rain = 0
KPG1 030843Z 00000KT 25/18 A30 RMK A01 T02460178  RH  066%=      5-min Rain = 0
KPG1 030844Z 33000KT 25/18 A30 RMK A01 T02460178  RH  066%=      5-min Rain = 0
KPG1 030845Z 36000KT 25/18 A30 RMK A01 T02460179  RH  066%=      5-min Rain = 0
KPG1 030846Z 24000KT 25/18 A30 RMK A01 T02460178  RH  066%=      5-min Rain = 0
KPG1 030847Z 20001KT 25/18 A30 RMK A01 T02460179  RH  066%=      5-min Rain = 0
KPG1 030848Z 19002KT 25/18 A30 RMK A01 T02450179  RH  067%=      5-min Rain = 0
KPG1 030849Z 19002KT 25/18 A30 RMK A01 T02450180  RH  067%=      5-min Rain = 0
KPG1 030850Z 18002KT 24/18 A30 RMK A01 T02440180  RH  068%=      5-min Rain = 0
KPG1 030851Z 19001KT 24/18 A30 RMK A01 T02440182  RH  068%=      5-min Rain = 0
KPG1 030852Z 19001KT 24/18 A30 RMK A01 T02440181  RH  068%=      5-min Rain = 0
KPG1 030853Z 22002KT 25/18 A30 RMK A01 T02450182  RH  068%=      5-min Rain = 0
KPG1 030854Z 21002KT 25/18 A30 RMK A01 T02450182  RH  068%=      5-min Rain = 0
KPG1 030855Z 20002KT 25/18 A30 RMK A01 T02450183  RH  068%=      5-min Rain = 0
KPG1 030856Z 23002KT 24/18 A30 RMK A01 T02440184  RH  069%=      5-min Rain = 0
KPG1 030857Z 24001KT 24/18 A30 RMK A01 T02440184  RH  069%=      5-min Rain = 0
KPG1 030858Z 24001KT 24/19 A30 RMK A01 T02420185  RH  070%=      5-min Rain = 0
KPG1 030859Z 24001KT 24/19 A30 RMK A01 T02420185  RH  071%=      5-min Rain = 0
KPG1 030900Z 25001KT 24/19 A30 RMK A01 T02410185  RH  071%=      5-min Rain = 0
KPG1 030901Z 24001KT 24/18 A30 RMK A01 T02410184  RH  071%=      5-min Rain = 0
KPG1 030902Z 23001KT 24/18 A30 RMK A01 T02400184  RH  071%=      5-min Rain = 0
KPG1 030903Z 24001KT 24/19 A30 RMK A01 T02400185  RH  071%=      5-min Rain = 0
KPG1 030904Z 26002KT 24/19 A30 RMK A01 T02390186  RH  072%=      5-min Rain = 0
KPG1 030905Z 25002KT 24/19 A30 RMK A01 T02380188  RH  074%=      5-min Rain = 0
KPG1 030906Z 25002KT 24/19 A30 RMK A01 T02370189  RH  074%=      5-min Rain = 0
KPG1 030907Z 26002KT 24/19 A30 RMK A01 T02360191  RH  076%=      5-min Rain = 0
KPG1 030908Z 27001KT 24/19 A30 RMK A01 T02360191  RH  076%=      5-min Rain = 0
KPG1 030909Z 27001KT 24/19 A30 RMK A01 T02350191  RH  076%=      5-min Rain = 0
KPG1 030910Z 26001KT 24/19 A30 RMK A01 T02360190  RH  076%=      5-min Rain = 0
KPG1 030911Z 27001KT 24/19 A30 RMK A01 T02360189  RH  075%=      5-min Rain = 0
KPG1 030912Z 27002KT 24/19 A30 RMK A01 T02360189  RH  075%=      5-min Rain = 0
KPG1 030913Z 27002KT 24/19 A30 RMK A01 T02370189  RH  074%=      5-min Rain = 0
KPG1 030914Z 27001KT 24/19 A30 RMK A01 T02380189  RH  074%=      5-min Rain = 0
KPG1 030915Z 27001KT 24/19 A30 RMK A01 T02370189  RH  074%=      5-min Rain = 0
KPG1 030916Z 27001KT 24/19 A30 RMK A01 T02380191  RH  075%=      5-min Rain = 0
KPG1 030917Z 27000KT 24/19 A30 RMK A01 T02370190  RH  075%=      5-min Rain = 0
KPG1 030918Z 33000KT 24/19 A30 RMK A01 T02370189  RH  074%=      5-min Rain = 0
KPG1 030919Z 32000KT 24/19 A30 RMK A01 T02380189  RH  074%=      5-min Rain = 0
KPG1 030920Z 00000KT 24/19 A30 RMK A01 T02390189  RH  074%=      5-min Rain = 0
KPG1 030921Z 00000KT 24/19 A30 RMK A01 T02400189  RH  073%=      5-min Rain = 0
KPG1 030922Z 25000KT 24/19 A30 RMK A01 T02400189  RH  073%=      5-min Rain = 0
KPG1 030923Z 25001KT 24/19 A30 RMK A01 T02400189  RH  073%=      5-min Rain = 0
KPG1 030924Z 24001KT 24/19 A30 RMK A01 T02400189  RH  073%=      5-min Rain = 0
KPG1 030925Z 23002KT 24/19 A30 RMK A01 T02400191  RH  074%=      5-min Rain = 0
KPG1 030926Z 23001KT 24/19 A30 RMK A01 T02400193  RH  075%=      5-min Rain = 0
KPG1 030927Z 23001KT 24/19 A30 RMK A01 T02390193  RH  075%=      5-min Rain = 0
KPG1 030928Z 24001KT 24/19 A30 RMK A01 T02390192  RH  075%=      5-min Rain = 0
KPG1 030929Z 24001KT 24/19 A30 RMK A01 T02380192  RH  075%=      5-min Rain = 0
KPG1 030930Z 23001KT 24/19 A30 RMK A01 T02390192  RH  075%=      5-min Rain = 0
KPG1 030931Z 21001KT 24/19 A30 RMK A01 T02390193  RH  076%=      5-min Rain = 0
KPG1 030932Z 21001KT 24/19 A30 RMK A01 T02380193  RH  076%=      5-min Rain = 0
KPG1 030933Z 22001KT 24/19 A30 RMK A01 T02380194  RH  076%=      5-min Rain = 0
KPG1 030934Z 22001KT 24/19 A30 RMK A01 T02380194  RH  076%=      5-min Rain = 0
KPG1 030935Z 21001KT 24/19 A30 RMK A01 T02380194  RH  077%=      5-min Rain = 0
KPG1 030936Z 21000KT 24/20 A30 RMK A01 T02380195  RH  077%=      5-min Rain = 0
KPG1 030937Z 00000KT 24/20 A30 RMK A01 T02370195  RH  077%=      5-min Rain = 0
KPG1 030938Z 00000KT 24/20 A30 RMK A01 T02380195  RH  077%=      5-min Rain = 0
KPG1 030939Z 00000KT 24/20 A30 RMK A01 T02370195  RH  077%=      5-min Rain = 0
KPG1 030940Z 00000KT 24/20 A30 RMK A01 T02370196  RH  077%=      5-min Rain = 0
KPG1 030941Z 30000KT 24/20 A30 RMK A01 T02380195  RH  077%=      5-min Rain = 0
KPG1 030942Z 30001KT 24/19 A30 RMK A01 T02370194  RH  077%=      5-min Rain = 0
KPG1 030943Z 30001KT 24/19 A30 RMK A01 T02370194  RH  077%=      5-min Rain = 0
KPG1 030944Z 30000KT 24/19 A30 RMK A01 T02370194  RH  077%=      5-min Rain = 0
KPG1 030945Z 30000KT 24/19 A3001 RMK A01 T02370193  RH  076%=      5-min Rain = 0
KPG1 030946Z 00000KT 24/19 A3001 RMK A01 T02380193  RH  076%=      5-min Rain = 0
KPG1 030947Z 00000KT 24/19 A3001 RMK A01 T02380193  RH  076%=      5-min Rain = 0
KPG1 030948Z 00000KT 24/19 A3001 RMK A01 T02380192  RH  076%=      5-min Rain = 0
KPG1 030949Z 00000KT 24/19 A3001 RMK A01 T02380192  RH  075%=      5-min Rain = 0
KPG1 030950Z 00000KT 24/19 A3001 RMK A01 T02390192  RH  075%=      5-min Rain = 0
KPG1 030951Z 00000KT 24/19 A3001 RMK A01 T02380192  RH  075%=      5-min Rain = 0
KPG1 030952Z 00000KT 24/19 A3001 RMK A01 T02380192  RH  075%=      5-min Rain = 0
KPG1 030953Z 24000KT 24/19 A3001 RMK A01 T02390192  RH  075%=      5-min Rain = 0
KPG1 030954Z 24000KT 24/19 A3001 RMK A01 T02380192  RH  075%=      5-min Rain = 0
KPG1 030955Z 25001KT 24/19 A3001 RMK A01 T02380192  RH  075%=      5-min Rain = 0
KPG1 030956Z 25001KT 24/19 A3001 RMK A01 T02380192  RH  075%=      5-min Rain = 0
KPG1 030957Z 25001KT 24/19 A3001 RMK A01 T02380192  RH  075%=      5-min Rain = 0
KPG1 030958Z 25001KT 24/19 A3001 RMK A01 T02380191  RH  075%=      5-min Rain = 0
KPG1 030959Z 27001KT 24/19 A3001 RMK A01 T02380191  RH  075%=      5-min Rain = 0
KPG1 031000Z 28001KT 24/19 A3001 RMK A01 T02380191  RH  075%=      5-min Rain = 0
KPG1 031001Z 28001KT 24/19 A3001 RMK A01 T02380192  RH  075%=      5-min Rain = 0
KPG1 031002Z 26001KT 24/19 A3001 RMK A01 T02380191  RH  075%=      5-min Rain = 0
KPG1 031003Z 26002KT 24/19 A3001 RMK A01 T02390191  RH  075%=      5-min Rain = 0
KPG1 031004Z 25002KT 24/19 A3001 RMK A01 T02390191  RH  075%=      5-min Rain = 0
KPG1 031005Z 26002KT 24/19 A3001 RMK A01 T02390192  RH  075%=      5-min Rain = 0
KPG1 031006Z 26002KT 24/19 A3001 RMK A01 T02380192  RH  075%=      5-min Rain = 0
KPG1 031007Z 27002KT 24/19 A3001 RMK A01 T02380192  RH  075%=      5-min Rain = 0
KPG1 031008Z 26002KT 24/19 A3001 RMK A01 T02380191  RH  075%=      5-min Rain = 0
KPG1 031009Z 26002KT 24/19 A3001 RMK A01 T02380191  RH  075%=      5-min Rain = 0
KPG1 031010Z 25002KT 24/19 A3001 RMK A01 T02380191  RH  075%=      5-min Rain = 0
KPG1 031011Z 25002KT 24/19 A3001 RMK A01 T02390191  RH  075%=      5-min Rain = 0
KPG1 031012Z 25002KT 24/19 A3001 RMK A01 T02390190  RH  074%=      5-min Rain = 0
KPG1 031013Z 25002KT 24/19 A3001 RMK A01 T02390190  RH  074%=      5-min Rain = 0
KPG1 031014Z 24002KT 24/19 A3001 RMK A01 T02390190  RH  074%=      5-min Rain = 0
KPG1 031015Z 23003KT 24/19 A3001 RMK A01 T02390190  RH  074%=      5-min Rain = 0
KPG1 031016Z 23002KT 24/19 A30 RMK A01 T02400191  RH  074%=      5-min Rain = 0
KPG1 031017Z 24002KT 24/19 A30 RMK A01 T02400191  RH  074%=      5-min Rain = 0
KPG1 031018Z 24002KT 24/19 A30 RMK A01 T02400191  RH  074%=      5-min Rain = 0
KPG1 031019Z 24002KT 24/19 A30 RMK A01 T02400191  RH  074%=      5-min Rain = 0
KPG1 031020Z 24002KT 24/19 A30 RMK A01 T02400191  RH  074%=      5-min Rain = 0
KPG1 031021Z 25002KT 24/19 A30 RMK A01 T02390191  RH  074%=      5-min Rain = 0
KPG1 031022Z 22001KT 24/19 A30 RMK A01 T02390191  RH  074%=      5-min Rain = 0
KPG1 031023Z 17001KT 24/19 A3001 RMK A01 T02390192  RH  075%=      5-min Rain = 0
KPG1 031024Z 16001KT 24/19 A3001 RMK A01 T02380192  RH  076%=      5-min Rain = 0
KPG1 031025Z 17001KT 24/19 A3001 RMK A01 T02380193  RH  076%=      5-min Rain = 0
KPG1 031026Z 18001KT 24/19 A3001 RMK A01 T02380193  RH  076%=      5-min Rain = 0
KPG1 031027Z 19001KT 24/19 A3001 RMK A01 T02370193  RH  076%=      5-min Rain = 0
KPG1 031028Z 19001KT 24/19 A3001 RMK A01 T02380193  RH  076%=      5-min Rain = 0
KPG1 031029Z 20002KT 24/19 A3001 RMK A01 T02380194  RH  076%=      5-min Rain = 0
KPG1 031030Z 18002KT 24/19 A3001 RMK A01 T02380193  RH  076%=      5-min Rain = 0
KPG1 031031Z 17003KT 24/19 A3001 RMK A01 T02370193  RH  076%=      5-min Rain = 0
KPG1 031032Z 18003KT 24/19 A3001 RMK A01 T02370194  RH  077%=      5-min Rain = 0
KPG1 031033Z 17003KT 24/19 A3001 RMK A01 T02360194  RH  077%=      5-min Rain = 0
KPG1 031034Z 18002KT 24/19 A3001 RMK A01 T02360194  RH  077%=      5-min Rain = 0
KPG1 031035Z 19002KT 24/19 A3001 RMK A01 T02360194  RH  077%=      5-min Rain = 0
KPG1 031036Z 17002KT 24/19 A3001 RMK A01 T02360194  RH  078%=      5-min Rain = 0
KPG1 031037Z 17002KT 24/20 A3001 RMK A01 T02360195  RH  078%=      5-min Rain = 0
KPG1 031038Z 17002KT 24/20 A3001 RMK A01 T02360196  RH  078%=      5-min Rain = 0
KPG1 031039Z 15001KT 24/20 A3001 RMK A01 T02350196  RH  079%=      5-min Rain = 0
KPG1 031040Z 14002KT 24/20 A3001 RMK A01 T02350196  RH  079%=      5-min Rain = 0
KPG1 031041Z 15002KT 24/20 A3001 RMK A01 T02350196  RH  079%=      5-min Rain = 0
KPG1 031042Z 15002KT 24/20 A3001 RMK A01 T02350196  RH  079%=      5-min Rain = 0
KPG1 031043Z 15002KT 23/20 A3001 RMK A01 T02340195  RH  079%=      5-min Rain = 0
KPG1 031044Z 16002KT 23/20 A3001 RMK A01 T02340196  RH  079%=      5-min Rain = 0
KPG1 031045Z 16002KT 23/20 A3001 RMK A01 T02340196  RH  079%=      5-min Rain = 0
KPG1 031046Z 16001KT 23/20 A3001 RMK A01 T02340195  RH  079%=      5-min Rain = 0
KPG1 031047Z 18001KT 23/20 A3001 RMK A01 T02340195  RH  079%=      5-min Rain = 0
KPG1 031048Z 17001KT 24/20 A3001 RMK A01 T02350195  RH  079%=      5-min Rain = 0
KPG1 031049Z 17001KT 24/20 A3001 RMK A01 T02350195  RH  079%=      5-min Rain = 0
KPG1 031050Z 15001KT 24/20 A3002 RMK A01 T02350195  RH  078%=      5-min Rain = 0
KPG1 031051Z 13001KT 24/20 A3002 RMK A01 T02350195  RH  078%=      5-min Rain = 0
KPG1 031052Z 13001KT 24/20 A3002 RMK A01 T02350195  RH  078%=      5-min Rain = 0
KPG1 031053Z 10002KT 24/20 A3002 RMK A01 T02350195  RH  078%=      5-min Rain = 0
KPG1 031054Z 09002KT 24/20 A3002 RMK A01 T02350195  RH  078%=      5-min Rain = 0
KPG1 031055Z 08002KT 24/20 A3002 RMK A01 T02350195  RH  078%=      5-min Rain = 0
KPG1 031056Z 07002KT 24/20 A3002 RMK A01 T02350195  RH  078%=      5-min Rain = 0
KPG1 031057Z 07002KT 24/19 A3002 RMK A01 T02350194  RH  078%=      5-min Rain = 0
KPG1 031058Z 07002KT 24/19 A3001 RMK A01 T02350194  RH  078%=      5-min Rain = 0
KPG1 031059Z 08001KT 24/19 A3001 RMK A01 T02360194  RH  077%=      5-min Rain = 0
KPG1 031100Z 08001KT 24/19 A3001 RMK A01 T02360193  RH  077%=      5-min Rain = 0
KPG1 031101Z 08001KT 24/19 A3002 RMK A01 T02360193  RH  077%=      5-min Rain = 0
KPG1 031102Z 08000KT 24/19 A3002 RMK A01 T02360193  RH  077%=      5-min Rain = 0
KPG1 031103Z 00001KT 24/19 A3002 RMK A01 T02360193  RH  077%=      5-min Rain = 0
KPG1 031104Z 00002KT 24/19 A3002 RMK A01 T02360194  RH  077%=      5-min Rain = 0
KPG1 031105Z 02002KT 24/19 A3002 RMK A01 T02360194  RH  077%=      5-min Rain = 0
KPG1 031106Z 02002KT 24/19 A3002 RMK A01 T02360194  RH  077%=      5-min Rain = 0
KPG1 031107Z 02002KT 24/19 A3002 RMK A01 T02360194  RH  077%=      5-min Rain = 0
KPG1 031108Z 02002KT 24/19 A3002 RMK A01 T02360194  RH  077%=      5-min Rain = 0
KPG1 031109Z 02002KT 24/19 A3002 RMK A01 T02360194  RH  077%=      5-min Rain = 0
KPG1 031110Z 02002KT 24/19 A3002 RMK A01 T02360194  RH  077%=      5-min Rain = 0
KPG1 031111Z 02002KT 24/19 A3002 RMK A01 T02360194  RH  077%=      5-min Rain = 0
KPG1 031112Z 03002KT 24/19 A3002 RMK A01 T02360193  RH  077%=      5-min Rain = 0
KPG1 031113Z 03001KT 24/19 A3002 RMK A01 T02360193  RH  077%=      5-min Rain = 0
KPG1 031114Z 02001KT 24/19 A3002 RMK A01 T02360193  RH  077%=      5-min Rain = 0
KPG1 031115Z 01001KT 24/19 A3002 RMK A01 T02360193  RH  077%=      5-min Rain = 0
KPG1 031116Z 01000KT 24/19 A3002 RMK A01 T02360193  RH  077%=      5-min Rain = 0
KPG1 031117Z 04000KT 24/19 A3002 RMK A01 T02360193  RH  077%=      5-min Rain = 0
KPG1 031118Z 06001KT 24/19 A3002 RMK A01 T02360193  RH  077%=      5-min Rain = 0
KPG1 031119Z 04001KT 24/19 A3002 RMK A01 T02360192  RH  077%=      5-min Rain = 0
KPG1 031120Z 05001KT 24/19 A3002 RMK A01 T02360192  RH  077%=      5-min Rain = 0
KPG1 031121Z 05001KT 24/19 A3002 RMK A01 T02360192  RH  076%=      5-min Rain = 0
KPG1 031122Z 05001KT 24/19 A3002 RMK A01 T02360192  RH  076%=      5-min Rain = 0
KPG1 031123Z 06001KT 24/19 A3002 RMK A01 T02360192  RH  076%=      5-min Rain = 0
KPG1 031124Z 11001KT 24/19 A3002 RMK A01 T02360192  RH  076%=      5-min Rain = 0
KPG1 031125Z 11000KT 24/19 A3002 RMK A01 T02370192  RH  076%=      5-min Rain = 0
KPG1 031126Z 00000KT 24/19 A3002 RMK A01 T02370192  RH  075%=      5-min Rain = 0
KPG1 031127Z 00000KT 24/19 A3002 RMK A01 T02370191  RH  075%=      5-min Rain = 0
KPG1 031128Z 00000KT 24/19 A3002 RMK A01 T02380191  RH  075%=      5-min Rain = 0
KPG1 031129Z 31000KT 24/19 A3002 RMK A01 T02380191  RH  075%=      5-min Rain = 0
KPG1 031130Z 35002KT 24/19 A3002 RMK A01 T02380190  RH  074%=      5-min Rain = 0
KPG1 031131Z 36005KT 24/18 A3002 RMK A01 T02380184  RH  072%=      5-min Rain = 0
KPG1 031132Z 00006KT 24/18 A3002 RMK A01 T02390181  RH  070%=      5-min Rain = 0
KPG1 031133Z 36006KT 24/18 A3002 RMK A01 T02390180  RH  069%=      5-min Rain = 0
KPG1 031134Z 00006KT 24/18 A3002 RMK A01 T02400180  RH  069%=      5-min Rain = 0
KPG1 031135Z 04005KT 24/18 A3002 RMK A01 T02410180  RH  069%=      5-min Rain = 0
KPG1 031136Z 06004KT 24/18 A3002 RMK A01 T02410180  RH  069%=      5-min Rain = 0
KPG1 031137Z 08007KT 24/18 A3002 RMK A01 T02420182  RH  069%=      5-min Rain = 0
KPG1 031138Z 08007KT 24/18 A3002 RMK A01 T02420179  RH  068%=      5-min Rain = 0
KPG1 031139Z 08010KT 24/17 A3002 RMK A01 T02420174  RH  066%=      5-min Rain = 0
KPG1 031140Z 08009KT 24/17 A3002 RMK A01 T02420171  RH  064%=      5-min Rain = 0
KPG1 031141Z 08008KT 24/17 A3002 RMK A01 T02420170  RH  064%=      5-min Rain = 0
KPG1 031142Z 07009KT 24/17 A3002 RMK A01 T02430169  RH  063%=      5-min Rain = 0
KPG1 031143Z 07010KT 24/17 A3002 RMK A01 T02420168  RH  063%=      5-min Rain = 0
KPG1 031144Z 07011KT 24/17 A3002 RMK A01 T02430169  RH  063%=      5-min Rain = 0
KPG1 031145Z 06009KT 24/17 A3003 RMK A01 T02430170  RH  064%=      5-min Rain = 0
KPG1 031146Z 06011KT 24/17 A3003 RMK A01 T02420170  RH  064%=      5-min Rain = 0
KPG1 031147Z 06011KT 24/17 A3003 RMK A01 T02420171  RH  065%=      5-min Rain = 0
KPG1 031148Z 06010KT 24/17 A3003 RMK A01 T02410171  RH  065%=      5-min Rain = 0
KPG1 031149Z 06008KT 24/17 A3003 RMK A01 T02410171  RH  065%=      5-min Rain = 0
KPG1 031150Z 05007KT 24/17 A3003 RMK A01 T02400171  RH  065%=      5-min Rain = 0
KPG1 031151Z 05009KT 24/17 A3003 RMK A01 T02400171  RH  065%=      5-min Rain = 0
KPG1 031152Z 05008KT 24/17 A3003 RMK A01 T02400172  RH  066%=      5-min Rain = 0
KPG1 031153Z 05007KT 24/17 A3003 RMK A01 T02390172  RH  066%=      5-min Rain = 0
KPG1 031154Z 04008KT 24/17 A3003 RMK A01 T02400173  RH  066%=      5-min Rain = 0
KPG1 031155Z 04007KT 24/17 A3003 RMK A01 T02390173  RH  066%=      5-min Rain = 0
KPG1 031156Z 03007KT 24/17 A3003 RMK A01 T02390173  RH  067%=      5-min Rain = 0
KPG1 031157Z 03007KT 24/17 A3003 RMK A01 T02380173  RH  067%=      5-min Rain = 0
KPG1 031158Z 02006KT 24/17 A3003 RMK A01 T02380173  RH  067%=      5-min Rain = 0
KPG1 031159Z 02007KT 24/17 A3003 RMK A01 T02370174  RH  067%=      5-min Rain = 0
KPG1 031200Z 01006KT 24/17 A3003 RMK A01 T02370174  RH  068%=      5-min Rain = 0
KPG1 031201Z 01008KT 24/17 A3003 RMK A01 T02360173  RH  068%=      5-min Rain = 0
KPG1 031202Z 00009KT 24/17 A3003 RMK A01 T02350171  RH  067%=      5-min Rain = 0
KPG1 031203Z 00009KT 24/17 A3003 RMK A01 T02350171  RH  067%=      5-min Rain = 0
KPG1 031204Z 01008KT 24/17 A3003 RMK A01 T02350171  RH  067%=      5-min Rain = 0
KPG1 031205Z 01008KT 24/17 A3004 RMK A01 T02350171  RH  067%=      5-min Rain = 0
KPG1 031206Z 01007KT 24/17 A3004 RMK A01 T02350171  RH  067%=      5-min Rain = 0
KPG1 031207Z 01008KT 24/17 A3004 RMK A01 T02350171  RH  067%=      5-min Rain = 0
KPG1 031208Z 02007KT 24/17 A3004 RMK A01 T02350170  RH  067%=      5-min Rain = 0
KPG1 031209Z 01007KT 24/17 A3004 RMK A01 T02350170  RH  067%=      5-min Rain = 0
KPG1 031210Z 02008KT 24/17 A3004 RMK A01 T02360170  RH  066%=      5-min Rain = 0
KPG1 031211Z 02007KT 24/17 A3004 RMK A01 T02360170  RH  066%=      5-min Rain = 0
KPG1 031212Z 02008KT 24/17 A3004 RMK A01 T02360170  RH  066%=      5-min Rain = 0
KPG1 031213Z 01008KT 24/17 A3004 RMK A01 T02360169  RH  066%=      5-min Rain = 0
KPG1 031214Z 02008KT 24/17 A3004 RMK A01 T02370168  RH  065%=      5-min Rain = 0
KPG1 031215Z 02008KT 24/17 A3004 RMK A01 T02370168  RH  065%=      5-min Rain = 0
KPG1 031216Z 02008KT 24/17 A3004 RMK A01 T02380168  RH  065%=      5-min Rain = 0
KPG1 031217Z 02007KT 24/17 A3004 RMK A01 T02380169  RH  065%=      5-min Rain = 0
KPG1 031218Z 02007KT 24/17 A3004 RMK A01 T02380168  RH  065%=      5-min Rain = 0
KPG1 031219Z 03007KT 24/17 A3004 RMK A01 T02370168  RH  065%=      5-min Rain = 0
KPG1 031220Z 02007KT 24/17 A3004 RMK A01 T02380169  RH  065%=      5-min Rain = 0
KPG1 031221Z 02006KT 24/17 A3004 RMK A01 T02370169  RH  065%=      5-min Rain = 0
KPG1 031222Z 03006KT 24/17 A3004 RMK A01 T02380169  RH  066%=      5-min Rain = 0
KPG1 031223Z 04007KT 24/17 A3004 RMK A01 T02380170  RH  066%=      5-min Rain = 0
KPG1 031224Z 04007KT 24/17 A3004 RMK A01 T02370169  RH  066%=      5-min Rain = 0
KPG1 031225Z 04007KT 24/17 A3004 RMK A01 T02370168  RH  065%=      5-min Rain = 0
KPG1 031226Z 03007KT 24/17 A3004 RMK A01 T02380168  RH  065%=      5-min Rain = 0
KPG1 031227Z 02007KT 24/17 A3004 RMK A01 T02390168  RH  064%=      5-min Rain = 0
KPG1 031228Z 03007KT 24/17 A3004 RMK A01 T02390168  RH  064%=      5-min Rain = 0
KPG1 031229Z 04007KT 24/17 A3004 RMK A01 T02390168  RH  064%=      5-min Rain = 0
KPG1 031230Z 04006KT 24/17 A3004 RMK A01 T02400168  RH  064%=      5-min Rain = 0
KPG1 031231Z 04007KT 24/17 A3004 RMK A01 T02390168  RH  064%=      5-min Rain = 0
KPG1 031232Z 04007KT 24/17 A3004 RMK A01 T02400169  RH  064%=      5-min Rain = 0
KPG1 031233Z 04007KT 24/17 A3004 RMK A01 T02400169  RH  064%=      5-min Rain = 0
KPG1 031234Z 03007KT 24/17 A3004 RMK A01 T02410170  RH  064%=      5-min Rain = 0
KPG1 031235Z 03007KT 24/17 A3004 RMK A01 T02410170  RH  065%=      5-min Rain = 0
KPG1 031236Z 02007KT 24/17 A3004 RMK A01 T02410171  RH  065%=      5-min Rain = 0
KPG1 031237Z 03007KT 24/17 A3004 RMK A01 T02410172  RH  065%=      5-min Rain = 0
KPG1 031238Z 03007KT 24/17 A3004 RMK A01 T02420174  RH  066%=      5-min Rain = 0
KPG1 031239Z 03007KT 24/17 A3004 RMK A01 T02430174  RH  065%=      5-min Rain = 0
KPG1 031240Z 02008KT 24/18 A3004 RMK A01 T02440175  RH  066%=      5-min Rain = 0
KPG1 031241Z 02008KT 25/18 A3004 RMK A01 T02450178  RH  066%=      5-min Rain = 0
KPG1 031242Z 02008KT 25/18 A3004 RMK A01 T02460179  RH  066%=      5-min Rain = 0
KPG1 031243Z 02008KT 25/18 A3004 RMK A01 T02470178  RH  065%=      5-min Rain = 0
KPG1 031244Z 02008KT 25/18 A3004 RMK A01 T02470179  RH  066%=      5-min Rain = 0
KPG1 031245Z 02007KT 25/18 A3004 RMK A01 T02470179  RH  066%=      5-min Rain = 0
KPG1 031246Z 03006KT 25/18 A3004 RMK A01 T02470180  RH  066%=      5-min Rain = 0
KPG1 031247Z 02007KT 25/18 A3004 RMK A01 T02470179  RH  066%=      5-min Rain = 0
KPG1 031248Z 02008KT 25/18 A3004 RMK A01 T02470180  RH  066%=      5-min Rain = 0
KPG1 031249Z 02008KT 25/18 A3004 RMK A01 T02470181  RH  067%=      5-min Rain = 0
KPG1 031250Z 02008KT 25/18 A3004 RMK A01 T02470181  RH  067%=      5-min Rain = 0
KPG1 031251Z 03007KT 25/18 A3004 RMK A01 T02470181  RH  067%=      5-min Rain = 0
KPG1 031252Z 03007KT 25/18 A3004 RMK A01 T02470180  RH  066%=      5-min Rain = 0
KPG1 031253Z 03007KT 25/18 A3004 RMK A01 T02460180  RH  066%=      5-min Rain = 0
KPG1 031254Z 03007KT 25/18 A3004 RMK A01 T02460180  RH  067%=      5-min Rain = 0
KPG1 031255Z 03008KT 25/18 A3004 RMK A01 T02460180  RH  067%=      5-min Rain = 0
KPG1 031256Z 03008KT 25/18 A3004 RMK A01 T02460180  RH  067%=      5-min Rain = 0
KPG1 031257Z 03008KT 25/18 A3004 RMK A01 T02460180  RH  067%=      5-min Rain = 0
KPG1 031258Z 03007KT 25/18 A3004 RMK A01 T02460181  RH  067%=      5-min Rain = 0
KPG1 031259Z 02008KT 25/18 A3004 RMK A01 T02460181  RH  067%=      5-min Rain = 0
KPG1 031300Z 02008KT 25/18 A3004 RMK A01 T02460181  RH  067%=      5-min Rain = 0
KPG1 031301Z 02007KT 25/18 A3004 RMK A01 T02460182  RH  067%=      5-min Rain = 0
KPG1 031302Z 01005KT 25/18 A3004 RMK A01 T02460181  RH  067%=      5-min Rain = 0
KPG1 031303Z 02006KT 25/18 A3004 RMK A01 T02460182  RH  067%=      5-min Rain = 0
KPG1 031304Z 02007KT 25/18 A3004 RMK A01 T02460182  RH  067%=      5-min Rain = 0
KPG1 031305Z 02007KT 25/18 A3004 RMK A01 T02470183  RH  068%=      5-min Rain = 0
KPG1 031306Z 03007KT 25/18 A3004 RMK A01 T02480184  RH  067%=      5-min Rain = 0
KPG1 031307Z 03007KT 25/18 A3004 RMK A01 T02490183  RH  067%=      5-min Rain = 0
KPG1 031308Z 03006KT 25/18 A3004 RMK A01 T02500183  RH  067%=      5-min Rain = 0
KPG1 031309Z 04006KT 25/18 A3004 RMK A01 T02510183  RH  066%=      5-min Rain = 0
KPG1 031310Z 03006KT 25/18 A3004 RMK A01 T02520183  RH  066%=      5-min Rain = 0
KPG1 031311Z 03006KT 25/18 A3004 RMK A01 T02530183  RH  065%=      5-min Rain = 0
KPG1 031312Z 02007KT 26/18 A3004 RMK A01 T02550184  RH  065%=      5-min Rain = 0
KPG1 031313Z 02006KT 26/18 A3004 RMK A01 T02560184  RH  065%=      5-min Rain = 0
KPG1 031314Z 02006KT 26/19 A3004 RMK A01 T02560185  RH  065%=      5-min Rain = 0
KPG1 031315Z 03006KT 26/19 A3005 RMK A01 T02570186  RH  065%=      5-min Rain = 0
KPG1 031316Z 02006KT 26/19 A3005 RMK A01 T02580186  RH  064%=      5-min Rain = 0
KPG1 031317Z 03006KT 26/19 A3005 RMK A01 T02590186  RH  064%=      5-min Rain = 0
KPG1 031318Z 03006KT 26/19 A3005 RMK A01 T02590186  RH  064%=      5-min Rain = 0
KPG1 031319Z 03006KT 26/19 A3005 RMK A01 T02600186  RH  064%=      5-min Rain = 0
KPG1 031320Z 03006KT 26/19 A3005 RMK A01 T02590186  RH  064%=      5-min Rain = 0
KPG1 031321Z 03006KT 26/19 A3005 RMK A01 T02580186  RH  064%=      5-min Rain = 0
KPG1 031322Z 04005KT 26/19 A3005 RMK A01 T02580186  RH  064%=      5-min Rain = 0
KPG1 031323Z 03005KT 26/19 A3005 RMK A01 T02600187  RH  064%=      5-min Rain = 0
KPG1 031324Z 03006KT 26/19 A3005 RMK A01 T02610187  RH  064%=      5-min Rain = 0
KPG1 031325Z 04005KT 26/19 A3005 RMK A01 T02610187  RH  063%=      5-min Rain = 0
KPG1 031326Z 05006KT 26/19 A3005 RMK A01 T02620187  RH  063%=      5-min Rain = 0
KPG1 031327Z 05006KT 26/19 A3006 RMK A01 T02620187  RH  063%=      5-min Rain = 0
KPG1 031328Z 05007KT 26/19 A3006 RMK A01 T02620187  RH  063%=      5-min Rain = 0
KPG1 031329Z 05006KT 26/19 A3006 RMK A01 T02610187  RH  064%=      5-min Rain = 0
KPG1 031330Z 05006KT 26/19 A3006 RMK A01 T02600187  RH  064%=      5-min Rain = 0
KPG1 031331Z 03006KT 26/19 A3006 RMK A01 T02620188  RH  064%=      5-min Rain = 0
KPG1 031332Z 04006KT 26/19 A3006 RMK A01 T02630189  RH  063%=      5-min Rain = 0
KPG1 031333Z 04005KT 26/19 A3006 RMK A01 T02640189  RH  063%=      5-min Rain = 0
KPG1 031334Z 04006KT 26/19 A3006 RMK A01 T02630188  RH  063%=      5-min Rain = 0
KPG1 031335Z 04007KT 26/19 A3006 RMK A01 T02630189  RH  064%=      5-min Rain = 0
KPG1 031336Z 04006KT 26/19 A3006 RMK A01 T02620188  RH  064%=      5-min Rain = 0
KPG1 031337Z 05005KT 26/19 A3006 RMK A01 T02610188  RH  064%=      5-min Rain = 0
KPG1 031338Z 03005KT 26/19 A3006 RMK A01 T02610188  RH  064%=      5-min Rain = 0
KPG1 031339Z 04006KT 26/19 A3006 RMK A01 T02610188  RH  064%=      5-min Rain = 0
KPG1 031340Z 04006KT 26/19 A3006 RMK A01 T02620189  RH  064%=      5-min Rain = 0
KPG1 031341Z 03006KT 26/19 A3006 RMK A01 T02640189  RH  063%=      5-min Rain = 0
KPG1 031342Z 03005KT 26/19 A3007 RMK A01 T02640188  RH  063%=      5-min Rain = 0
KPG1 031343Z 05007KT 26/19 A3007 RMK A01 T02640188  RH  063%=      5-min Rain = 0
KPG1 031344Z 05007KT 26/19 A3007 RMK A01 T02640188  RH  063%=      5-min Rain = 0
KPG1 031345Z 05006KT 27/19 A3007 RMK A01 T02650188  RH  063%=      5-min Rain = 0
KPG1 031346Z 05006KT 27/19 A3007 RMK A01 T02650188  RH  063%=      5-min Rain = 0
KPG1 031347Z 04006KT 27/19 A3006 RMK A01 T02660188  RH  062%=      5-min Rain = 0
KPG1 031348Z 05006KT 27/19 A3006 RMK A01 T02670188  RH  062%=      5-min Rain = 0
KPG1 031349Z 04006KT 27/19 A3006 RMK A01 T02660188  RH  062%=      5-min Rain = 0
KPG1 031350Z 03005KT 27/19 A3006 RMK A01 T02680189  RH  062%=      5-min Rain = 0
KPG1 031351Z 02006KT 27/19 A3006 RMK A01 T02680189  RH  062%=      5-min Rain = 0
KPG1 031352Z 02006KT 27/19 A3006 RMK A01 T02680188  RH  061%=      5-min Rain = 0
KPG1 031353Z 03005KT 27/19 A3006 RMK A01 T02670188  RH  062%=      5-min Rain = 0
KPG1 031354Z 02006KT 27/19 A3006 RMK A01 T02670188  RH  062%=      5-min Rain = 0
KPG1 031355Z 02006KT 27/19 A3006 RMK A01 T02670188  RH  062%=      5-min Rain = 0
KPG1 031356Z 01006KT 27/19 A3006 RMK A01 T02670188  RH  062%=      5-min Rain = 0
KPG1 031357Z 02006KT 27/19 A3006 RMK A01 T02670188  RH  062%=      5-min Rain = 0
KPG1 031358Z 02006KT 27/19 A3006 RMK A01 T02660188  RH  062%=      5-min Rain = 0
KPG1 031359Z 02006KT 27/19 A3006 RMK A01 T02660188  RH  062%=      5-min Rain = 0
KPG1 031400Z 02006KT 27/19 A3006 RMK A01 T02650187  RH  062%=      5-min Rain = 0
KPG1 031401Z 03005KT 26/19 A3006 RMK A01 T02640187  RH  063%=      5-min Rain = 0
KPG1 031402Z 02006KT 27/19 A3006 RMK A01 T02650187  RH  062%=      5-min Rain = 0
KPG1 031403Z 02007KT 27/19 A3006 RMK A01 T02650187  RH  062%=      5-min Rain = 0
KPG1 031404Z 01006KT 27/19 A3006 RMK A01 T02660187  RH  062%=      5-min Rain = 0
KPG1 031405Z 01006KT 27/19 A3006 RMK A01 T02670186  RH  061%=      5-min Rain = 0
KPG1 031406Z 01005KT 27/19 A3006 RMK A01 T02660187  RH  062%=      5-min Rain = 0
KPG1 031407Z 01005KT 27/19 A3006 RMK A01 T02660186  RH  062%=      5-min Rain = 0
KPG1 031408Z 01005KT 27/19 A3006 RMK A01 T02660186  RH  061%=      5-min Rain = 0
KPG1 031409Z 03004KT 27/19 A3006 RMK A01 T02670186  RH  061%=      5-min Rain = 0
KPG1 031410Z 02005KT 27/19 A3006 RMK A01 T02690188  RH  061%=      5-min Rain = 0
KPG1 031411Z 00005KT 27/19 A3006 RMK A01 T02710187  RH  060%=      5-min Rain = 0
KPG1 031412Z 00005KT 27/19 A3006 RMK A01 T02700186  RH  060%=      5-min Rain = 0
KPG1 031413Z 02005KT 27/19 A3006 RMK A01 T02690186  RH  060%=      5-min Rain = 0
KPG1 031414Z 01005KT 27/19 A3006 RMK A01 T02700186  RH  060%=      5-min Rain = 0
KPG1 031415Z 01005KT 27/19 A3006 RMK A01 T02710186  RH  059%=      5-min Rain = 0
KPG1 031416Z 02004KT 27/19 A3006 RMK A01 T02710186  RH  060%=      5-min Rain = 0
KPG1 031417Z 01005KT 27/19 A3006 RMK A01 T02720185  RH  059%=      5-min Rain = 0
KPG1 031418Z 02004KT 27/19 A3006 RMK A01 T02720185  RH  059%=      5-min Rain = 0
KPG1 031419Z 03005KT 27/19 A3006 RMK A01 T02730186  RH  059%=      5-min Rain = 0
KPG1 031420Z 02003KT 27/19 A3006 RMK A01 T02730185  RH  059%=      5-min Rain = 0
KPG1 031421Z 01003KT 27/19 A3006 RMK A01 T02740185  RH  058%=      5-min Rain = 0
KPG1 031422Z 03004KT 28/19 A3006 RMK A01 T02760186  RH  058%=      5-min Rain = 0
KPG1 031423Z 03003KT 28/19 A3006 RMK A01 T02780186  RH  057%=      5-min Rain = 0
KPG1 031424Z 03003KT 28/19 A3006 RMK A01 T02790185  RH  057%=      5-min Rain = 0
KPG1 031425Z 02003KT 28/19 A3006 RMK A01 T02790185  RH  057%=      5-min Rain = 0
KPG1 031426Z 01003KT 28/19 A3006 RMK A01 T02800185  RH  056%=      5-min Rain = 0
KPG1 031427Z 02002KT 28/18 A3006 RMK A01 T02810184  RH  056%=      5-min Rain = 0
KPG1 031428Z 32002KT 28/18 A3006 RMK A01 T02810184  RH  056%=      5-min Rain = 0
KPG1 031429Z 29002KT 28/18 A3006 RMK A01 T02810184  RH  056%=      5-min Rain = 0
KPG1 031430Z 34001KT 28/18 A3006 RMK A01 T02810184  RH  056%=      5-min Rain = 0
KPG1 031431Z 03001KT 28/19 A3006 RMK A01 T02830186  RH  055%=      5-min Rain = 0
KPG1 031432Z 05004KT 29/19 A3006 RMK A01 T02860186  RH  055%=      5-min Rain = 0
KPG1 031433Z 07004KT 29/19 A3006 RMK A01 T02880186  RH  054%=      5-min Rain = 0
KPG1 031434Z 08003KT 29/18 A3006 RMK A01 T02870184  RH  054%=      5-min Rain = 0
KPG1 031435Z 10002KT 28/18 A3006 RMK A01 T02840182  RH  054%=      5-min Rain = 0
KPG1 031436Z 16003KT 28/18 A3006 RMK A01 T02820183  RH  055%=      5-min Rain = 0
KPG1 031437Z 18005KT 28/18 A3006 RMK A01 T02830180  RH  054%=      5-min Rain = 0
KPG1 031438Z 17003KT 28/18 A3007 RMK A01 T02820180  RH  054%=      5-min Rain = 0
KPG1 031439Z 19004KT 28/18 A3007 RMK A01 T02820180  RH  054%=      5-min Rain = 0
KPG1 031440Z 20003KT 28/18 A3007 RMK A01 T02840181  RH  054%=      5-min Rain = 0
KPG1 031441Z 21003KT 28/18 A3007 RMK A01 T02840181  RH  053%=      5-min Rain = 0
KPG1 031442Z 20006KT 28/18 A3006 RMK A01 T02830181  RH  054%=      5-min Rain = 0
KPG1 031443Z 18004KT 28/18 A3006 RMK A01 T02820181  RH  054%=      5-min Rain = 0
KPG1 031444Z 22002KT 28/18 A3006 RMK A01 T02790180  RH  055%=      5-min Rain = 0
KPG1 031445Z 20002KT 28/18 A3006 RMK A01 T02780180  RH  055%=      5-min Rain = 0
KPG1 031446Z 18002KT 28/18 A3006 RMK A01 T02780180  RH  055%=      5-min Rain = 0
KPG1 031447Z 18003KT 28/18 A3006 RMK A01 T02790180  RH  055%=      5-min Rain = 0
KPG1 031448Z 16003KT 28/18 A3006 RMK A01 T02810181  RH  055%=      5-min Rain = 0
KPG1 031449Z 18005KT 28/18 A3006 RMK A01 T02830181  RH  054%=      5-min Rain = 0
KPG1 031450Z 19005KT 29/18 A3006 RMK A01 T02850180  RH  053%=      5-min Rain = 0
KPG1 031451Z 18005KT 29/18 A3006 RMK A01 T02850180  RH  053%=      5-min Rain = 0
KPG1 031452Z 16004KT 28/18 A3006 RMK A01 T02840181  RH  054%=      5-min Rain = 0
KPG1 031453Z 18004KT 29/18 A3006 RMK A01 T02860181  RH  053%=      5-min Rain = 0
KPG1 031454Z 19004KT 29/18 A3006 RMK A01 T02870180  RH  052%=      5-min Rain = 0
KPG1 031455Z 18003KT 29/18 A3007 RMK A01 T02870181  RH  053%=      5-min Rain = 0
KPG1 031456Z 18003KT 29/18 A3007 RMK A01 T02860181  RH  053%=      5-min Rain = 0
KPG1 031457Z 17005KT 29/18 A3007 RMK A01 T02860180  RH  053%=      5-min Rain = 0
KPG1 031458Z 18005KT 29/18 A3007 RMK A01 T02870181  RH  052%=      5-min Rain = 0
KPG1 031459Z 17004KT 29/18 A3007 RMK A01 T02890181  RH  052%=      5-min Rain = 0
KPG1 031500Z 14003KT 29/18 A3007 RMK A01 T02900181  RH  052%=      5-min Rain = 0
KPG1 031501Z 14005KT 29/18 A3007 RMK A01 T02910181  RH  051%=      5-min Rain = 0
KPG1 031502Z 14008KT 29/18 A3007 RMK A01 T02930179  RH  050%=      5-min Rain = 0
KPG1 031503Z 15007KT 29/18 A3007 RMK A01 T02910179  RH  051%=      5-min Rain = 0
KPG1 031504Z 14007KT 29/18 A3007 RMK A01 T02900179  RH  051%=      5-min Rain = 0
KPG1 031505Z 15005KT 29/18 A3007 RMK A01 T02900179  RH  051%=      5-min Rain = 0
KPG1 031506Z 15005KT 29/18 A3007 RMK A01 T02890180  RH  052%=      5-min Rain = 0
KPG1 031507Z 15007KT 29/18 A3007 RMK A01 T02900179  RH  051%=      5-min Rain = 0
KPG1 031508Z 16005KT 29/18 A3007 RMK A01 T02900179  RH  051%=      5-min Rain = 0
KPG1 031509Z 17002KT 29/18 A3007 RMK A01 T02900180  RH  051%=      5-min Rain = 0
KPG1 031510Z 16003KT 29/18 A3007 RMK A01 T02910180  RH  051%=      5-min Rain = 0
KPG1 031511Z 16006KT 29/18 A3007 RMK A01 T02920180  RH  051%=      5-min Rain = 0
KPG1 031512Z 15004KT 29/18 A3007 RMK A01 T02940180  RH  050%=      5-min Rain = 0
KPG1 031513Z 17005KT 29/18 A3007 RMK A01 T02940181  RH  050%=      5-min Rain = 0
KPG1 031514Z 17006KT 29/18 A3007 RMK A01 T02940181  RH  051%=      5-min Rain = 0
KPG1 031515Z 16005KT 30/18 A3007 RMK A01 T02950180  RH  050%=      5-min Rain = 0
KPG1 031516Z 16004KT 30/18 A3007 RMK A01 T02960180  RH  050%=      5-min Rain = 0
KPG1 031517Z 17005KT 30/18 A3007 RMK A01 T02960181  RH  050%=      5-min Rain = 0
KPG1 031518Z 16004KT 30/18 A3007 RMK A01 T02950181  RH  050%=      5-min Rain = 0
KPG1 031519Z 13004KT 30/18 A3007 RMK A01 T02950181  RH  050%=      5-min Rain = 0
KPG1 031520Z 15005KT 30/18 A3007 RMK A01 T02960181  RH  050%=      5-min Rain = 0
KPG1 031521Z 17006KT 30/18 A3007 RMK A01 T02970182  RH  050%=      5-min Rain = 0
KPG1 031522Z 16005KT 30/18 A3007 RMK A01 T02970181  RH  049%=      5-min Rain = 0
KPG1 031523Z 16005KT 30/18 A3006 RMK A01 T02960182  RH  050%=      5-min Rain = 0
KPG1 031524Z 14004KT 29/18 A3006 RMK A01 T02940182  RH  051%=      5-min Rain = 0
KPG1 031525Z 15005KT 29/18 A3006 RMK A01 T02940182  RH  051%=      5-min Rain = 0
KPG1 031526Z 18007KT 30/18 A3006 RMK A01 T02960182  RH  050%=      5-min Rain = 0
KPG1 031527Z 15009KT 30/18 A3006 RMK A01 T02980182  RH  050%=      5-min Rain = 0
KPG1 031528Z 18006KT 30/18 A3006 RMK A01 T02990180  RH  049%=      5-min Rain = 0
KPG1 031529Z 18007KT 30/18 A3006 RMK A01 T02980181  RH  049%=      5-min Rain = 0
KPG1 031530Z 19004KT 30/18 A3006 RMK A01 T02980181  RH  050%=      5-min Rain = 0
KPG1 031531Z 18006KT 30/18 A3006 RMK A01 T02970181  RH  050%=      5-min Rain = 0
KPG1 031532Z 17005KT 30/18 A3006 RMK A01 T02960180  RH  050%=      5-min Rain = 0
KPG1 031533Z 18005KT 30/18 A3006 RMK A01 T02970181  RH  050%=      5-min Rain = 0
KPG1 031534Z 19005KT 30/18 A3006 RMK A01 T02970181  RH  050%=      5-min Rain = 0
KPG1 031535Z 18005KT 30/18 A3006 RMK A01 T02960182  RH  050%=      5-min Rain = 0
KPG1 031536Z 18005KT 30/18 A3006 RMK A01 T02980182  RH  050%=      5-min Rain = 0
KPG1 031537Z 16004KT 30/18 A3006 RMK A01 T03000182  RH  049%=      5-min Rain = 0
KPG1 031538Z 15003KT 30/18 A3006 RMK A01 T03030182  RH  048%=      5-min Rain = 0
KPG1 031539Z 14005KT 30/18 A3006 RMK A01 T03030183  RH  049%=      5-min Rain = 0
KPG1 031540Z 16005KT 30/18 A3006 RMK A01 T03030183  RH  048%=      5-min Rain = 0
KPG1 031541Z 17004KT 30/18 A3006 RMK A01 T03030182  RH  048%=      5-min Rain = 0
KPG1 031542Z 18003KT 30/18 A3006 RMK A01 T03030182  RH  049%=      5-min Rain = 0
KPG1 031543Z 18002KT 30/18 A3006 RMK A01 T03020183  RH  049%=      5-min Rain = 0
KPG1 031544Z 13004KT 30/18 A3006 RMK A01 T03020183  RH  049%=      5-min Rain = 0
KPG1 031545Z 14005KT 30/18 A3006 RMK A01 T03020183  RH  049%=      5-min Rain = 0
KPG1 031546Z 15006KT 30/18 A3006 RMK A01 T03040184  RH  049%=      5-min Rain = 0
KPG1 031547Z 15005KT 30/18 A3006 RMK A01 T03030182  RH  049%=      5-min Rain = 0
KPG1 031548Z 14005KT 30/18 A3006 RMK A01 T03010183  RH  049%=      5-min Rain = 0
KPG1 031549Z 16005KT 30/18 A3006 RMK A01 T03020184  RH  049%=      5-min Rain = 0
KPG1 031550Z 15007KT 31/19 A3006 RMK A01 T03050185  RH  048%=      5-min Rain = 0
KPG1 031551Z 13006KT 31/18 A3006 RMK A01 T03070184  RH  048%=      5-min Rain = 0
KPG1 031552Z 14002KT 31/18 A3006 RMK A01 T03080184  RH  047%=      5-min Rain = 0
KPG1 031553Z 15003KT 31/18 A3006 RMK A01 T03070183  RH  048%=      5-min Rain = 0
KPG1 031554Z 14003G9KT 31/18 A3006 RMK A01 T03050184  RH  048%=      5-min Rain = 0
KPG1 031555Z 15009KT 31/19 A3006 RMK A01 T03090185  RH  048%=      5-min Rain = 0
KPG1 031556Z 16008KT 31/18 A3006 RMK A01 T03110182  RH  046%=      5-min Rain = 0
KPG1 031557Z 16009KT 31/18 A3006 RMK A01 T03090182  RH  047%=      5-min Rain = 0
KPG1 031558Z 16008KT 31/18 A3006 RMK A01 T03090181  RH  047%=      5-min Rain = 0
KPG1 031559Z 17008KT 31/18 A3006 RMK A01 T03090182  RH  047%=      5-min Rain = 0
KPG1 031600Z 17005KT 31/18 A3006 RMK A01 T03090181  RH  047%=      5-min Rain = 0
KPG1 031601Z 17006KT 31/18 A3006 RMK A01 T03070181  RH  047%=      5-min Rain = 0
KPG1 031602Z 16009KT 31/18 A3006 RMK A01 T03080181  RH  047%=      5-min Rain = 0
KPG1 031603Z 18007KT 31/18 A3006 RMK A01 T03090179  RH  046%=      5-min Rain = 0
KPG1 031604Z 15006KT 31/18 A3006 RMK A01 T03090180  RH  046%=      5-min Rain = 0
KPG1 031605Z 16006KT 31/18 A3006 RMK A01 T03110181  RH  046%=      5-min Rain = 0
KPG1 031606Z 18006KT 31/18 A3006 RMK A01 T03140181  RH  045%=      5-min Rain = 0
KPG1 031607Z 14006G11KT 32/18 A3006 RMK A01 T03150180  RH  045%=      5-min Rain = 0
KPG1 031608Z 15009KT 32/18 A3006 RMK A01 T03150180  RH  045%=      5-min Rain = 0
KPG1 031609Z 16007KT 32/18 A3006 RMK A01 T03150179  RH  044%=      5-min Rain = 0
KPG1 031610Z 16007KT 31/18 A3006 RMK A01 T03140177  RH  044%=      5-min Rain = 0
KPG1 031611Z 16009KT 31/18 A3006 RMK A01 T03120177  RH  044%=      5-min Rain = 0
KPG1 031612Z 16009KT 31/18 A3006 RMK A01 T03140177  RH  044%=      5-min Rain = 0
KPG1 031613Z 18009KT 32/18 A3006 RMK A01 T03160177  RH  044%=      5-min Rain = 0
KPG1 031614Z 15007KT 32/18 A3006 RMK A01 T03170177  RH  043%=      5-min Rain = 0
KPG1 031615Z 14006KT 32/18 A3006 RMK A01 T03180176  RH  043%=      5-min Rain = 0
KPG1 031616Z 14012KT 32/17 A3006 RMK A01 T03200174  RH  042%=      5-min Rain = 0
KPG1 031617Z 14011KT 32/18 A3006 RMK A01 T03190175  RH  042%=      5-min Rain = 0
KPG1 031618Z 14011KT 32/18 A3006 RMK A01 T03160175  RH  043%=      5-min Rain = 0
KPG1 031619Z 12009KT 31/17 A3006 RMK A01 T03140174  RH  043%=      5-min Rain = 0
KPG1 031620Z 14007KT 31/17 A3006 RMK A01 T03130174  RH  044%=      5-min Rain = 0
KPG1 031621Z 13007KT 31/18 A3006 RMK A01 T03130175  RH  044%=      5-min Rain = 0
KPG1 031622Z 12006KT 31/18 A3006 RMK A01 T03140175  RH  043%=      5-min Rain = 0
KPG1 031623Z 12005KT 31/18 A3006 RMK A01 T03130176  RH  044%=      5-min Rain = 0
KPG1 031624Z 13006KT 32/18 A3006 RMK A01 T03160176  RH  043%=      5-min Rain = 0
KPG1 031625Z 15009KT 32/18 A3006 RMK A01 T03170175  RH  043%=      5-min Rain = 0
KPG1 031626Z 15008KT 32/18 A3006 RMK A01 T03160175  RH  043%=      5-min Rain = 0
KPG1 031627Z 15009KT 32/18 A3006 RMK A01 T03170175  RH  043%=      5-min Rain = 0
KPG1 031628Z 15009KT 32/18 A3006 RMK A01 T03180175  RH  042%=      5-min Rain = 0
KPG1 031629Z 13010KT 32/18 A3006 RMK A01 T03200175  RH  042%=      5-min Rain = 0
KPG1 031630Z 11010KT 32/17 A3006 RMK A01 T03220174  RH  041%=      5-min Rain = 0
KPG1 031631Z 11008KT 32/17 A3006 RMK A01 T03190173  RH  042%=      5-min Rain = 0
KPG1 031632Z 12008KT 32/17 A3006 RMK A01 T03190172  RH  042%=      5-min Rain = 0
KPG1 031633Z 16007KT 32/17 A3006 RMK A01 T03190173  RH  042%=      5-min Rain = 0
KPG1 031634Z 15008KT 32/17 A3006 RMK A01 T03230174  RH  041%=      5-min Rain = 0
KPG1 031635Z 15006KT 32/17 A3006 RMK A01 T03230172  RH  041%=      5-min Rain = 0
KPG1 031636Z 14004KT 32/17 A3006 RMK A01 T03210173  RH  041%=      5-min Rain = 0
KPG1 031637Z 15004KT 32/17 A3006 RMK A01 T03190172  RH  042%=      5-min Rain = 0
KPG1 031638Z 16006KT 32/17 A3006 RMK A01 T03190172  RH  041%=      5-min Rain = 0
KPG1 031639Z 14006KT 32/17 A3006 RMK A01 T03210170  RH  041%=      5-min Rain = 0
KPG1 031640Z 14007KT 32/17 A3006 RMK A01 T03220169  RH  040%=      5-min Rain = 0
KPG1 031641Z 14007KT 32/17 A3006 RMK A01 T03210170  RH  040%=      5-min Rain = 0
KPG1 031642Z 13007KT 32/17 A3006 RMK A01 T03230170  RH  040%=      5-min Rain = 0
KPG1 031643Z 12005KT 32/17 A3006 RMK A01 T03210169  RH  040%=      5-min Rain = 0
KPG1 031644Z 09004KT 32/17 A3006 RMK A01 T03210169  RH  040%=      5-min Rain = 0
KPG1 031645Z 09004KT 32/17 A3006 RMK A01 T03210169  RH  040%=      5-min Rain = 0
KPG1 031646Z 10003KT 32/17 A3006 RMK A01 T03210170  RH  040%=      5-min Rain = 0
KPG1 031647Z 11004KT 32/17 A3006 RMK A01 T03220171  RH  040%=      5-min Rain = 0
KPG1 031648Z 15008KT 33/17 A3006 RMK A01 T03260170  RH  040%=      5-min Rain = 0
KPG1 031649Z 14007KT 33/17 A3006 RMK A01 T03250170  RH  040%=      5-min Rain = 0
KPG1 031650Z 15005KT 33/17 A3006 RMK A01 T03270170  RH  039%=      5-min Rain = 0
KPG1 031651Z 15009KT 33/17 A3006 RMK A01 T03300171  RH  039%=      5-min Rain = 0
KPG1 031652Z 15010KT 33/17 A3006 RMK A01 T03310170  RH  038%=      5-min Rain = 0
KPG1 031653Z 16007KT 33/17 A3006 RMK A01 T03270168  RH  039%=      5-min Rain = 0
KPG1 031654Z 19008KT 33/17 A3006 RMK A01 T03250167  RH  039%=      5-min Rain = 0
KPG1 031655Z 20006KT 33/17 A3006 RMK A01 T03270166  RH  038%=      5-min Rain = 0
KPG1 031656Z 18003KT 33/17 A3006 RMK A01 T03250167  RH  039%=      5-min Rain = 0
KPG1 031657Z 20002KT 33/17 A3006 RMK A01 T03280168  RH  038%=      5-min Rain = 0
KPG1 031658Z 17004KT 33/17 A3005 RMK A01 T03310167  RH  038%=      5-min Rain = 0
KPG1 031659Z 13001KT 33/17 A3005 RMK A01 T03300167  RH  038%=      5-min Rain = 0
KPG1 031700Z 10001KT 33/17 A3005 RMK A01 T03280167  RH  038%=      5-min Rain = 0
KPG1 031701Z 13005KT 33/17 A3005 RMK A01 T03270168  RH  039%=      5-min Rain = 0
KPG1 031702Z 11007KT 33/17 A3005 RMK A01 T03260170  RH  039%=      5-min Rain = 0
KPG1 031703Z 11007KT 32/17 A3005 RMK A01 T03240169  RH  040%=      5-min Rain = 0
KPG1 031704Z 11005KT 32/17 A3005 RMK A01 T03230169  RH  040%=      5-min Rain = 0
KPG1 031705Z 07002KT 32/17 A3005 RMK A01 T03210171  RH  041%=      5-min Rain = 0
KPG1 031706Z 05002KT 32/17 A3005 RMK A01 T03210173  RH  041%=      5-min Rain = 0
KPG1 031707Z 13005KT 33/17 A3005 RMK A01 T03250174  RH  040%=      5-min Rain = 0
KPG1 031708Z 11005KT 33/18 A3005 RMK A01 T03290175  RH  040%=      5-min Rain = 0
KPG1 031709Z 14006KT 33/18 A3005 RMK A01 T03320175  RH  039%=      5-min Rain = 0
KPG1 031710Z 10007KT 33/18 A3005 RMK A01 T03320175  RH  039%=      5-min Rain = 0
KPG1 031711Z 08008KT 33/18 A3005 RMK A01 T03300176  RH  040%=      5-min Rain = 0
KPG1 031712Z 08007KT 33/18 A3005 RMK A01 T03280177  RH  041%=      5-min Rain = 0
KPG1 031713Z 13006KT 33/18 A3005 RMK A01 T03280178  RH  041%=      5-min Rain = 0
KPG1 031714Z 14007KT 33/18 A3005 RMK A01 T03320179  RH  040%=      5-min Rain = 0
KPG1 031715Z 15009KT 33/18 A3005 RMK A01 T03330175  RH  039%=      5-min Rain = 0
KPG1 031716Z 17009KT 33/17 A3005 RMK A01 T03330172  RH  038%=      5-min Rain = 0
KPG1 031717Z 12011KT 33/18 A3005 RMK A01 T03310176  RH  040%=      5-min Rain = 0
KPG1 031718Z 12009KT 33/17 A3005 RMK A01 T03260174  RH  040%=      5-min Rain = 0
KPG1 031719Z 12008KT 32/18 A3005 RMK A01 T03240176  RH  041%=      5-min Rain = 0
KPG1 031720Z 16007KT 32/17 A3005 RMK A01 T03220173  RH  041%=      5-min Rain = 0
KPG1 031721Z 16006KT 33/17 A3005 RMK A01 T03250170  RH  040%=      5-min Rain = 0
KPG1 031722Z 15005KT 33/17 A3005 RMK A01 T03250170  RH  039%=      5-min Rain = 0
KPG1 031723Z 15007KT 33/17 A3005 RMK A01 T03290169  RH  038%=      5-min Rain = 0
KPG1 031724Z 14008KT 33/17 A3005 RMK A01 T03320168  RH  037%=      5-min Rain = 0
KPG1 031725Z 16004KT 33/17 A3005 RMK A01 T03340167  RH  037%=      5-min Rain = 0
KPG1 031726Z 19008G14KT 33/17 A3005 RMK A01 T03340167  RH  037%=      5-min Rain = 0
KPG1 031727Z 18011KT 34/17 A3005 RMK A01 T03350166  RH  037%=      5-min Rain = 0
KPG1 031728Z 18008KT 33/17 A3005 RMK A01 T03340166  RH  037%=      5-min Rain = 0
KPG1 031729Z 17008KT 33/17 A3005 RMK A01 T03330166  RH  037%=      5-min Rain = 0
KPG1 031730Z 17007KT 34/17 A3005 RMK A01 T03350168  RH  037%=      5-min Rain = 0
KPG1 031731Z 15009KT 34/17 A3005 RMK A01 T03390168  RH  036%=      5-min Rain = 0
KPG1 031732Z 13009KT 34/17 A3005 RMK A01 T03360167  RH  036%=      5-min Rain = 0
KPG1 031733Z 13007KT 33/17 A3005 RMK A01 T03340167  RH  037%=      5-min Rain = 0
KPG1 031734Z 11006KT 33/17 A3005 RMK A01 T03330166  RH  037%=      5-min Rain = 0
KPG1 031735Z 13004KT 33/17 A3005 RMK A01 T03300166  RH  037%=      5-min Rain = 0
KPG1 031736Z 12001KT 33/17 A3005 RMK A01 T03300167  RH  038%=      5-min Rain = 0
KPG1 031737Z 12004KT 33/17 A3005 RMK A01 T03340169  RH  037%=      5-min Rain = 0
KPG1 031738Z 14003KT 34/17 A3005 RMK A01 T03350168  RH  037%=      5-min Rain = 0
KPG1 031739Z 14011KT 34/17 A3005 RMK A01 T03350169  RH  037%=      5-min Rain = 0
KPG1 031740Z 13009KT 34/17 A3005 RMK A01 T03350170  RH  037%=      5-min Rain = 0
KPG1 031741Z 13006KT 34/17 A3005 RMK A01 T03390172  RH  037%=      5-min Rain = 0
KPG1 031742Z 14010KT 34/17 A3005 RMK A01 T03430173  RH  036%=      5-min Rain = 0
KPG1 031743Z 15008KT 34/17 A3005 RMK A01 T03400172  RH  037%=      5-min Rain = 0
KPG1 031744Z 15003KT 33/17 A3005 RMK A01 T03340170  RH  038%=      5-min Rain = 0
KPG1 031745Z 17006KT 33/17 A3005 RMK A01 T03330171  RH  038%=      5-min Rain = 0
KPG1 031746Z 15009KT 33/17 A3005 RMK A01 T03340170  RH  038%=      5-min Rain = 0
KPG1 031747Z 15006KT 34/17 A3005 RMK A01 T03360170  RH  037%=      5-min Rain = 0
KPG1 031748Z 14004KT 33/17 A3005 RMK A01 T03330168  RH  037%=      5-min Rain = 0
KPG1 031749Z 13003KT 33/17 A3005 RMK A01 T03310168  RH  038%=      5-min Rain = 0
KPG1 031750Z 13002KT 34/17 A3004 RMK A01 T03350169  RH  037%=      5-min Rain = 0
KPG1 031751Z 12002G7KT 34/17 A3004 RMK A01 T03380168  RH  036%=      5-min Rain = 0
KPG1 031752Z 13007KT 34/17 A3004 RMK A01 T03380169  RH  036%=      5-min Rain = 0
KPG1 031753Z 11006KT 34/17 A3004 RMK A01 T03360170  RH  037%=      5-min Rain = 0
KPG1 031754Z 09003KT 33/17 A3004 RMK A01 T03320170  RH  038%=      5-min Rain = 0
KPG1 031755Z 10005KT 33/17 A3004 RMK A01 T03320167  RH  037%=      5-min Rain = 0
KPG1 031756Z 10006KT 33/17 A3004 RMK A01 T03310166  RH  037%=      5-min Rain = 0
KPG1 031757Z 05004KT 33/17 A3004 RMK A01 T03310165  RH  037%=      5-min Rain = 0
KPG1 031758Z 04003KT 33/17 A3004 RMK A01 T03300165  RH  037%=      5-min Rain = 0
KPG1 031759Z 06002KT 33/17 A3004 RMK A01 T03320166  RH  037%=      5-min Rain = 0
KPG1 031800Z 14006KT 34/17 A3004 RMK A01 T03360167  RH  037%=      5-min Rain = 0
KPG1 031801Z 14007KT 34/17 A3004 RMK A01 T03410165  RH  035%=      5-min Rain = 0
KPG1 031802Z 12006KT 34/16 A3004 RMK A01 T03430164  RH  035%=      5-min Rain = 0
KPG1 031803Z 12003KT 34/16 A3004 RMK A01 T03410164  RH  035%=      5-min Rain = 0
KPG1 031804Z 13005KT 34/17 A3004 RMK A01 T03390166  RH  035%=      5-min Rain = 0
KPG1 031805Z 12008KT 34/17 A3004 RMK A01 T03390168  RH  036%=      5-min Rain = 0
KPG1 031806Z 10004KT 34/17 A3004 RMK A01 T03360166  RH  036%=      5-min Rain = 0
KPG1 031807Z 07004KT 34/17 A3004 RMK A01 T03350166  RH  036%=      5-min Rain = 0
KPG1 031808Z 26002KT 33/17 A3004 RMK A01 T03320165  RH  037%=      5-min Rain = 0
KPG1 031809Z 27003KT 33/17 A3004 RMK A01 T03300166  RH  038%=      5-min Rain = 0
KPG1 031810Z 28004KT 33/17 A3004 RMK A01 T03320167  RH  037%=      5-min Rain = 0
KPG1 031811Z 28006KT 33/16 A3004 RMK A01 T03330164  RH  036%=      5-min Rain = 0
KPG1 031812Z 23004KT 33/17 A3004 RMK A01 T03320166  RH  037%=      5-min Rain = 0
KPG1 031813Z 20007KT 34/17 A3004 RMK A01 T03350167  RH  037%=      5-min Rain = 0
KPG1 031814Z 17007KT 34/17 A3004 RMK A01 T03390168  RH  036%=      5-min Rain = 0
KPG1 031815Z 15007KT 34/17 A3004 RMK A01 T03400171  RH  037%=      5-min Rain = 0
KPG1 031816Z 14006KT 34/17 A3004 RMK A01 T03400173  RH  037%=      5-min Rain = 0
KPG1 031817Z 16007KT 34/17 A3004 RMK A01 T03420173  RH  037%=      5-min Rain = 0
KPG1 031818Z 14008KT 34/18 A3004 RMK A01 T03420175  RH  037%=      5-min Rain = 0
KPG1 031819Z 15004KT 34/18 A3004 RMK A01 T03410176  RH  038%=      5-min Rain = 0
KPG1 031820Z 25001KT 34/18 A3004 RMK A01 T03380176  RH  038%=      5-min Rain = 0
KPG1 031821Z 14004G9KT 34/18 A3003 RMK A01 T03370175  RH  038%=      5-min Rain = 0
KPG1 031822Z 12007KT 34/18 A3003 RMK A01 T03370175  RH  038%=      5-min Rain = 0
KPG1 031823Z 09007KT 34/17 A3003 RMK A01 T03350172  RH  038%=      5-min Rain = 0
KPG1 031824Z 12006KT 33/17 A3003 RMK A01 T03320169  RH  038%=      5-min Rain = 0
KPG1 031825Z 12002KT 33/17 A3003 RMK A01 T03310169  RH  038%=      5-min Rain = 0
KPG1 031826Z 17005KT 33/17 A3003 RMK A01 T03310167  RH  038%=      5-min Rain = 0
KPG1 031827Z 18008KT 34/17 A3003 RMK A01 T03350166  RH  036%=      5-min Rain = 0
KPG1 031828Z 19003KT 34/17 A3003 RMK A01 T03360167  RH  036%=      5-min Rain = 0
KPG1 031829Z 13002KT 34/17 A3003 RMK A01 T03360165  RH  036%=      5-min Rain = 0
KPG1 031830Z 15005KT 34/17 A3003 RMK A01 T03370166  RH  036%=      5-min Rain = 0
KPG1 031831Z 14005KT 34/17 A3003 RMK A01 T03370167  RH  036%=      5-min Rain = 0
KPG1 031832Z 11004KT 34/17 A3003 RMK A01 T03370168  RH  036%=      5-min Rain = 0
KPG1 031833Z 10004KT 34/17 A3003 RMK A01 T03390170  RH  036%=      5-min Rain = 0
KPG1 031834Z 09005KT 34/17 A3003 RMK A01 T03390173  RH  037%=      5-min Rain = 0
KPG1 031835Z 10005KT 34/18 A3003 RMK A01 T03360176  RH  039%=      5-min Rain = 0
KPG1 031836Z 08002KT 34/18 A3003 RMK A01 T03350178  RH  039%=      5-min Rain = 0
KPG1 031837Z 12002KT 34/18 A3003 RMK A01 T03360177  RH  039%=      5-min Rain = 0
KPG1 031838Z 13003KT 34/18 A3003 RMK A01 T03370176  RH  038%=      5-min Rain = 0
KPG1 031839Z 13005KT 34/17 A3003 RMK A01 T03370174  RH  038%=      5-min Rain = 0
KPG1 031840Z 07005KT 34/18 A3003 RMK A01 T03410178  RH  038%=      5-min Rain = 0
KPG1 031841Z 08004G10KT 35/18 A3003 RMK A01 T03460179  RH  037%=      5-min Rain = 0
KPG1 031842Z 12006KT 35/18 A3003 RMK A01 T03470178  RH  037%=      5-min Rain = 0
KPG1 031843Z 09006KT 35/18 A3003 RMK A01 T03510179  RH  036%=      5-min Rain = 0
KPG1 031844Z 08006KT 35/18 A3003 RMK A01 T03520177  RH  036%=      5-min Rain = 0
KPG1 031845Z 07006KT 35/18 A3003 RMK A01 T03520178  RH  036%=      5-min Rain = 0
KPG1 031846Z 05007KT 35/18 A3003 RMK A01 T03540176  RH  035%=      5-min Rain = 0
KPG1 031847Z 08007G14KT 35/18 A3002 RMK A01 T03510175  RH  035%=      5-min Rain = 0
KPG1 031848Z 11005KT 35/18 A3002 RMK A01 T03510175  RH  035%=      5-min Rain = 0
KPG1 031849Z 10004KT 35/18 A3002 RMK A01 T03520175  RH  035%=      5-min Rain = 0
KPG1 031850Z 08007KT 35/18 A3002 RMK A01 T03520175  RH  035%=      5-min Rain = 0
KPG1 031851Z 06007KT 35/18 A3002 RMK A01 T03510177  RH  036%=      5-min Rain = 0
KPG1 031852Z 11009G14KT 35/18 A3002 RMK A01 T03520176  RH  035%=      5-min Rain = 0
KPG1 031853Z 08011KT 35/17 A3002 RMK A01 T03500174  RH  035%=      5-min Rain = 0
KPG1 031854Z 11007KT 34/18 A3002 RMK A01 T03440175  RH  037%=      5-min Rain = 0
KPG1 031855Z 08009KT 35/18 A3002 RMK A01 T03510175  RH  035%=      5-min Rain = 0
KPG1 031856Z 08006KT 35/17 A3002 RMK A01 T03500173  RH  035%=      5-min Rain = 0
KPG1 031857Z 10006KT 35/17 A3002 RMK A01 T03480173  RH  035%=      5-min Rain = 0
KPG1 031858Z 14007KT 35/17 A3002 RMK A01 T03470173  RH  036%=      5-min Rain = 0
KPG1 031859Z 16008KT 35/17 A3002 RMK A01 T03480173  RH  035%=      5-min Rain = 0
KPG1 031900Z 13005KT 35/17 A3002 RMK A01 T03490172  RH  035%=      5-min Rain = 0
KPG1 031901Z 10004KT 35/17 A3002 RMK A01 T03500173  RH  035%=      5-min Rain = 0
KPG1 031902Z 08003KT 36/18 A3002 RMK A01 T03550175  RH  035%=      5-min Rain = 0
KPG1 031903Z 05002KT 36/17 A3002 RMK A01 T03590174  RH  034%=      5-min Rain = 0
KPG1 031904Z 03001KT 36/17 A3002 RMK A01 T03560173  RH  034%=      5-min Rain = 0
KPG1 031905Z 01002KT 36/17 A3002 RMK A01 T03550172  RH  034%=      5-min Rain = 0
KPG1 031906Z 02006KT 35/17 A3002 RMK A01 T03530171  RH  034%=      5-min Rain = 0
KPG1 031907Z 35005KT 35/17 A3002 RMK A01 T03500169  RH  034%=      5-min Rain = 0
KPG1 031908Z 35004KT 35/17 A3001 RMK A01 T03460168  RH  035%=      5-min Rain = 0
KPG1 031909Z 06008KT 35/17 A3001 RMK A01 T03450169  RH  035%=      5-min Rain = 0
KPG1 031910Z 04004KT 35/17 A3002 RMK A01 T03470169  RH  035%=      5-min Rain = 0
KPG1 031911Z 08008KT 35/17 A3002 RMK A01 T03450168  RH  035%=      5-min Rain = 0
KPG1 031912Z 07009KT 34/17 A3002 RMK A01 T03430168  RH  035%=      5-min Rain = 0
KPG1 031913Z 06008KT 34/17 A3002 RMK A01 T03430167  RH  035%=      5-min Rain = 0
KPG1 031914Z 06007KT 34/17 A3002 RMK A01 T03410166  RH  035%=      5-min Rain = 0
KPG1 031915Z 06002KT 34/17 A3002 RMK A01 T03390165  RH  035%=      5-min Rain = 0
KPG1 031916Z 10003KT 34/17 A3001 RMK A01 T03370165  RH  036%=      5-min Rain = 0
KPG1 031917Z 08011KT 34/17 A3001 RMK A01 T03370165  RH  036%=      5-min Rain = 0
KPG1 031918Z 07010KT 34/17 A3001 RMK A01 T03390165  RH  035%=      5-min Rain = 0
KPG1 031919Z 05010KT 34/17 A3001 RMK A01 T03410166  RH  035%=      5-min Rain = 0
KPG1 031920Z 05007KT 34/17 A3001 RMK A01 T03440166  RH  035%=      5-min Rain = 0
KPG1 031921Z 08003KT 34/16 A3001 RMK A01 T03410164  RH  035%=      5-min Rain = 0
KPG1 031922Z 01003KT 34/17 A3001 RMK A01 T03410165  RH  035%=      5-min Rain = 0
KPG1 031923Z 02002KT 34/16 A3001 RMK A01 T03430164  RH  034%=      5-min Rain = 0
KPG1 031924Z 05002KT 35/17 A3001 RMK A01 T03450165  RH  034%=      5-min Rain = 0
KPG1 031925Z 04002KT 35/17 A3001 RMK A01 T03480166  RH  034%=      5-min Rain = 0
KPG1 031926Z 04005KT 35/17 A3001 RMK A01 T03520166  RH  033%=      5-min Rain = 0
KPG1 031927Z 10004KT 35/17 A3001 RMK A01 T03540166  RH  033%=      5-min Rain = 0
KPG1 031928Z 06010KT 35/17 A3001 RMK A01 T03530166  RH  033%=      5-min Rain = 0
KPG1 031929Z 05011KT 35/17 A3001 RMK A01 T03490165  RH  033%=      5-min Rain = 0
KPG1 031930Z 05009KT 35/16 A3001 RMK A01 T03450160  RH  033%=      5-min Rain = 0
KPG1 031931Z 04008KT 35/16 A3001 RMK A01 T03470160  RH  033%=      5-min Rain = 0
KPG1 031932Z 05010KT 35/16 A3001 RMK A01 T03490161  RH  033%=      5-min Rain = 0
KPG1 031933Z 05011KT 35/16 A3001 RMK A01 T03500163  RH  033%=      5-min Rain = 0
KPG1 031934Z 05008KT 35/16 A3001 RMK A01 T03490162  RH  033%=      5-min Rain = 0
KPG1 031935Z 04010KT 35/16 A3001 RMK A01 T03470163  RH  033%=      5-min Rain = 0
KPG1 031936Z 03007KT 35/16 A3001 RMK A01 T03450164  RH  034%=      5-min Rain = 0
KPG1 031937Z 02005KT 34/17 A3001 RMK A01 T03440166  RH  035%=      5-min Rain = 0
KPG1 031938Z 03004KT 34/17 A3001 RMK A01 T03440166  RH  035%=      5-min Rain = 0
KPG1 031939Z 06003KT 34/17 A3001 RMK A01 T03430165  RH  035%=      5-min Rain = 0
KPG1 031940Z 01005KT 34/16 A30 RMK A01 T03440164  RH  034%=      5-min Rain = 0
KPG1 031941Z 00006KT 35/16 A30 RMK A01 T03450163  RH  034%=      5-min Rain = 0
KPG1 031942Z 35004KT 34/16 A30 RMK A01 T03420161  RH  034%=      5-min Rain = 0
KPG1 031943Z 34005KT 34/16 A30 RMK A01 T03400160  RH  034%=      5-min Rain = 0
KPG1 031944Z 34003KT 34/16 A30 RMK A01 T03380159  RH  034%=      5-min Rain = 0
KPG1 031945Z 29001KT 34/16 A30 RMK A01 T03380158  RH  034%=      5-min Rain = 0
KPG1 031946Z 14002KT 34/16 A30 RMK A01 T03370158  RH  034%=      5-min Rain = 0
KPG1 031947Z 16003KT 34/16 A30 RMK A01 T03380159  RH  034%=      5-min Rain = 0
KPG1 031948Z 16002KT 34/16 A30 RMK A01 T03410164  RH  035%=      5-min Rain = 0
KPG1 031949Z 26002KT 34/16 A30 RMK A01 T03440164  RH  034%=      5-min Rain = 0
KPG1 031950Z 20002KT 35/17 A30 RMK A01 T03470165  RH  034%=      5-min Rain = 0
KPG1 031951Z 27006KT 35/17 A30 RMK A01 T03480165  RH  034%=      5-min Rain = 0
KPG1 031952Z 32006KT 35/17 A30 RMK A01 T03480165  RH  034%=      5-min Rain = 0
KPG1 031953Z 03007KT 35/16 A30 RMK A01 T03460158  RH  033%=      5-min Rain = 0
KPG1 031954Z 05008KT 35/16 A30 RMK A01 T03450160  RH  033%=      5-min Rain = 0
KPG1 031955Z 06007KT 34/16 A30 RMK A01 T03440159  RH  033%=      5-min Rain = 0
KPG1 031956Z 06005KT 34/16 A30 RMK A01 T03420157  RH  033%=      5-min Rain = 0
KPG1 031957Z 08005KT 34/16 A30 RMK A01 T03420156  RH  033%=      5-min Rain = 0
KPG1 031958Z 10004KT 34/16 A30 RMK A01 T03420155  RH  033%=      5-min Rain = 0
KPG1 031959Z 12002KT 34/16 A30 RMK A01 T03410156  RH  033%=      5-min Rain = 0
KPG1 032000Z 08003KT 34/16 A30 RMK A01 T03440158  RH  033%=      5-min Rain = 0
KPG1 032001Z 24001KT 35/16 A2999 RMK A01 T03470159  RH  032%=      5-min Rain = 0
KPG1 032002Z 21002KT 35/16 A2999 RMK A01 T03480159  RH  032%=      5-min Rain = 0
KPG1 032003Z 13003KT 35/16 A2999 RMK A01 T03480159  RH  032%=      5-min Rain = 0
KPG1 032004Z 09007KT 35/16 A2999 RMK A01 T03480159  RH  032%=      5-min Rain = 0
KPG1 032005Z 09006KT 35/16 A2999 RMK A01 T03470158  RH  032%=      5-min Rain = 0
KPG1 032006Z 07009KT 35/16 A2999 RMK A01 T03450157  RH  033%=      5-min Rain = 0
KPG1 032007Z 07009KT 34/16 A2999 RMK A01 T03440157  RH  033%=      5-min Rain = 0
KPG1 032008Z 11008KT 34/16 A2999 RMK A01 T03430157  RH  033%=      5-min Rain = 0
KPG1 032009Z 12007KT 34/16 A2999 RMK A01 T03440158  RH  033%=      5-min Rain = 0
KPG1 032010Z 10005KT 34/16 A2999 RMK A01 T03440158  RH  033%=      5-min Rain = 0
KPG1 032011Z 11005KT 34/16 A2999 RMK A01 T03430158  RH  033%=      5-min Rain = 0
KPG1 032012Z 07007KT 35/16 A2999 RMK A01 T03450159  RH  033%=      5-min Rain = 0
KPG1 032013Z 09008KT 35/16 A2999 RMK A01 T03480159  RH  033%=      5-min Rain = 0
KPG1 032014Z 08009KT 35/16 A2999 RMK A01 T03510159  RH  032%=      5-min Rain = 0
KPG1 032015Z 07004KT 35/16 A2999 RMK A01 T03520158  RH  032%=      5-min Rain = 0
KPG1 032016Z 07004KT 35/16 A2999 RMK A01 T03500158  RH  032%=      5-min Rain = 0
KPG1 032017Z 04005KT 35/16 A2999 RMK A01 T03500159  RH  032%=      5-min Rain = 0
KPG1 032018Z 03008KT 36/16 A2999 RMK A01 T03560161  RH  031%=      5-min Rain = 0
KPG1 032019Z 03009KT 36/16 A2999 RMK A01 T03600160  RH  031%=      5-min Rain = 0
KPG1 032020Z 02005KT 36/16 A2999 RMK A01 T03570158  RH  031%=      5-min Rain = 0
KPG1 032021Z 03006KT 36/16 A2999 RMK A01 T03550159  RH  031%=      5-min Rain = 0
KPG1 032022Z 03008KT 35/16 A2999 RMK A01 T03540158  RH  031%=      5-min Rain = 0
KPG1 032023Z 06008KT 36/16 A2998 RMK A01 T03560160  RH  031%=      5-min Rain = 0
KPG1 032024Z 07006KT 36/16 A2998 RMK A01 T03590160  RH  031%=      5-min Rain = 0
KPG1 032025Z 13008KT 36/16 A2998 RMK A01 T03620158  RH  030%=      5-min Rain = 0
KPG1 032026Z 15010KT 36/16 A2998 RMK A01 T03590157  RH  030%=      5-min Rain = 0
KPG1 032027Z 17008KT 36/16 A2998 RMK A01 T03600158  RH  030%=      5-min Rain = 0
KPG1 032028Z 14006KT 36/16 A2998 RMK A01 T03600158  RH  030%=      5-min Rain = 0
KPG1 032029Z 07005KT 36/16 A2998 RMK A01 T03570157  RH  030%=      5-min Rain = 0
KPG1 032030Z 06009KT 36/16 A2998 RMK A01 T03570155  RH  030%=      5-min Rain = 0
KPG1 032031Z 04011KT 36/16 A2998 RMK A01 T03610156  RH  030%=      5-min Rain = 0
KPG1 032032Z 03007KT 36/15 A2998 RMK A01 T03590154  RH  030%=      5-min Rain = 0
KPG1 032033Z 05006KT 35/15 A2998 RMK A01 T03540154  RH  030%=      5-min Rain = 0
KPG1 032034Z 05006KT 35/16 A2998 RMK A01 T03540155  RH  031%=      5-min Rain = 0
KPG1 032035Z 04005KT 35/15 A2998 RMK A01 T03530154  RH  031%=      5-min Rain = 0
KPG1 032036Z 09008KT 36/15 A2998 RMK A01 T03550153  RH  030%=      5-min Rain = 0
KPG1 032037Z 12011KT 36/15 A2998 RMK A01 T03590151  RH  029%=      5-min Rain = 0
KPG1 032038Z 13010KT 36/15 A2998 RMK A01 T03580150  RH  029%=      5-min Rain = 0
KPG1 032039Z 14011KT 36/15 A2998 RMK A01 T03580150  RH  029%=      5-min Rain = 0
KPG1 032040Z 16006KT 36/15 A2998 RMK A01 T03570150  RH  029%=      5-min Rain = 0
KPG1 032041Z 15004KT 36/15 A2998 RMK A01 T03580151  RH  029%=      5-min Rain = 0
KPG1 032042Z 15002KT 36/15 A2998 RMK A01 T03560152  RH  030%=      5-min Rain = 0
KPG1 032043Z 15004KT 36/15 A2998 RMK A01 T03560152  RH  030%=      5-min Rain = 0
KPG1 032044Z 12003KT 36/15 A2998 RMK A01 T03560151  RH  030%=      5-min Rain = 0
KPG1 032045Z 08008KT 36/15 A2998 RMK A01 T03560151  RH  029%=      5-min Rain = 0
KPG1 032046Z 07009KT 36/15 A2998 RMK A01 T03560150  RH  029%=      5-min Rain = 0
KPG1 032047Z 08011G16KT 36/15 A2998 RMK A01 T03560150  RH  029%=      5-min Rain = 0
KPG1 032048Z 09010KT 35/15 A2998 RMK A01 T03530150  RH  030%=      5-min Rain = 0
KPG1 032049Z 09010KT 35/15 A2997 RMK A01 T03540151  RH  030%=      5-min Rain = 0
KPG1 032050Z 06012KT 36/15 A2997 RMK A01 T03580151  RH  029%=      5-min Rain = 0
KPG1 032051Z 07010KT 36/15 A2997 RMK A01 T03580151  RH  029%=      5-min Rain = 0
KPG1 032052Z 11011KT 36/15 A2997 RMK A01 T03610152  RH  029%=      5-min Rain = 0
KPG1 032053Z 12009KT 36/15 A2997 RMK A01 T03590150  RH  029%=      5-min Rain = 0
KPG1 032054Z 11006KT 36/15 A2997 RMK A01 T03560151  RH  029%=      5-min Rain = 0
KPG1 032055Z 11008KT 36/15 A2997 RMK A01 T03590153  RH  029%=      5-min Rain = 0
KPG1 032056Z 10004KT 36/15 A2997 RMK A01 T03600152  RH  029%=      5-min Rain = 0
KPG1 032057Z 04006KT 36/15 A2997 RMK A01 T03600151  RH  029%=      5-min Rain = 0
KPG1 032058Z 10005KT 36/15 A2997 RMK A01 T03590151  RH  029%=      5-min Rain = 0
KPG1 032059Z 12009G14KT 36/15 A2997 RMK A01 T03600152  RH  029%=      5-min Rain = 0
KPG1 032100Z 10008KT 36/15 A2997 RMK A01 T03610151  RH  029%=      5-min Rain = 0
KPG1 032101Z 11008KT 36/15 A2997 RMK A01 T03620152  RH  029%=      5-min Rain = 0
KPG1 032102Z 11007KT 36/15 A2997 RMK A01 T03620152  RH  029%=      5-min Rain = 0
KPG1 032103Z 09005KT 36/15 A2997 RMK A01 T03620150  RH  028%=      5-min Rain = 0
KPG1 032104Z 08005KT 36/15 A2997 RMK A01 T03590148  RH  028%=      5-min Rain = 0
KPG1 032105Z 07004KT 36/15 A2997 RMK A01 T03580148  RH  029%=      5-min Rain = 0
KPG1 032106Z 14002KT 36/15 A2997 RMK A01 T03620152  RH  029%=      5-min Rain = 0
KPG1 032107Z 15004KT 37/15 A2997 RMK A01 T03650152  RH  028%=      5-min Rain = 0
KPG1 032108Z 13006KT 37/15 A2997 RMK A01 T03650153  RH  028%=      5-min Rain = 0
KPG1 032109Z 13005KT 36/15 A2997 RMK A01 T03640153  RH  028%=      5-min Rain = 0
KPG1 032110Z 05005KT 37/15 A2997 RMK A01 T03650152  RH  028%=      5-min Rain = 0
KPG1 032111Z 05005KT 37/15 A2997 RMK A01 T03670149  RH  027%=      5-min Rain = 0
KPG1 032112Z 36003KT 37/15 A2997 RMK A01 T03650149  RH  028%=      5-min Rain = 0
KPG1 032113Z 23001KT 37/15 A2997 RMK A01 T03650149  RH  028%=      5-min Rain = 0
KPG1 032114Z 01001KT 37/15 A2997 RMK A01 T03670151  RH  028%=      5-min Rain = 0
KPG1 032115Z 14004KT 37/15 A2997 RMK A01 T03700152  RH  028%=      5-min Rain = 0
KPG1 032116Z 16006KT 37/15 A2997 RMK A01 T03700154  RH  028%=      5-min Rain = 0
KPG1 032117Z 14007KT 37/16 A2997 RMK A01 T03680155  RH  028%=      5-min Rain = 0
KPG1 032118Z 13006KT 37/16 A2997 RMK A01 T03670155  RH  029%=      5-min Rain = 0
KPG1 032119Z 12005KT 36/16 A2997 RMK A01 T03630155  RH  029%=      5-min Rain = 0
KPG1 032120Z 14005G11KT 36/16 A2996 RMK A01 T03620156  RH  029%=      5-min Rain = 0
KPG1 032121Z 14010KT 37/16 A2996 RMK A01 T03650156  RH  029%=      5-min Rain = 0
KPG1 032122Z 12016KT 37/16 A2996 RMK A01 T03660155  RH  029%=      5-min Rain = 0
KPG1 032123Z 12012G18KT 37/16 A2997 RMK A01 T03650155  RH  029%=      5-min Rain = 0
KPG1 032124Z 10009KT 36/16 A2997 RMK A01 T03610155  RH  029%=      5-min Rain = 0
KPG1 032125Z 10008KT 36/15 A2997 RMK A01 T03610154  RH  029%=      5-min Rain = 0
KPG1 032126Z 12009KT 36/15 A2997 RMK A01 T03620153  RH  029%=      5-min Rain = 0
KPG1 032127Z 14006G13KT 36/15 A2997 RMK A01 T03580150  RH  029%=      5-min Rain = 0
KPG1 032128Z 16008KT 36/15 A2996 RMK A01 T03580152  RH  029%=      5-min Rain = 0
KPG1 032129Z 17007KT 36/15 A2996 RMK A01 T03600152  RH  029%=      5-min Rain = 0
KPG1 032130Z 14003KT 36/15 A2996 RMK A01 T03610152  RH  029%=      5-min Rain = 0
KPG1 032131Z 07001KT 36/15 A2996 RMK A01 T03630149  RH  028%=      5-min Rain = 0
KPG1 032132Z 05002KT 36/15 A2996 RMK A01 T03630150  RH  028%=      5-min Rain = 0
KPG1 032133Z 04003KT 37/15 A2996 RMK A01 T03670151  RH  028%=      5-min Rain = 0
KPG1 032134Z 12003KT 37/15 A2996 RMK A01 T03660149  RH  028%=      5-min Rain = 0
KPG1 032135Z 14004KT 37/15 A2996 RMK A01 T03660149  RH  028%=      5-min Rain = 0
KPG1 032136Z 10002KT 37/15 A2996 RMK A01 T03650147  RH  027%=      5-min Rain = 0
KPG1 032137Z 16004KT 36/15 A2996 RMK A01 T03640147  RH  028%=      5-min Rain = 0
KPG1 032138Z 16005KT 36/15 A2996 RMK A01 T03640147  RH  028%=      5-min Rain = 0
KPG1 032139Z 13010KT 37/15 A2996 RMK A01 T03650147  RH  027%=      5-min Rain = 0
KPG1 032140Z 14011KT 37/15 A2996 RMK A01 T03670147  RH  027%=      5-min Rain = 0
KPG1 032141Z 15009KT 37/15 A2996 RMK A01 T03670146  RH  027%=      5-min Rain = 0
KPG1 032142Z 14008KT 36/15 A2996 RMK A01 T03640145  RH  027%=      5-min Rain = 0
KPG1 032143Z 15007KT 36/14 A2996 RMK A01 T03630144  RH  027%=      5-min Rain = 0
KPG1 032144Z 12005KT 36/14 A2996 RMK A01 T03620144  RH  027%=      5-min Rain = 0
KPG1 032145Z 09007KT 36/14 A2996 RMK A01 T03620142  RH  027%=      5-min Rain = 0
KPG1 032146Z 06011KT 36/14 A2996 RMK A01 T03630142  RH  027%=      5-min Rain = 0
KPG1 032147Z 05009KT 37/14 A2996 RMK A01 T03650142  RH  026%=      5-min Rain = 0
KPG1 032148Z 06010KT 36/14 A2996 RMK A01 T03630140  RH  026%=      5-min Rain = 0
KPG1 032149Z 07006KT 36/14 A2996 RMK A01 T03610141  RH  027%=      5-min Rain = 0
KPG1 032150Z 00007KT 36/14 A2996 RMK A01 T03630143  RH  027%=      5-min Rain = 0
KPG1 032151Z 03008KT 36/14 A2996 RMK A01 T03640142  RH  027%=      5-min Rain = 0
KPG1 032152Z 04008KT 36/14 A2996 RMK A01 T03630141  RH  027%=      5-min Rain = 0
KPG1 032153Z 05005KT 36/14 A2996 RMK A01 T03600141  RH  027%=      5-min Rain = 0
KPG1 032154Z 10003KT 36/14 A2996 RMK A01 T03580140  RH  027%=      5-min Rain = 0
KPG1 032155Z 12004G9KT 36/14 A2996 RMK A01 T03570141  RH  027%=      5-min Rain = 0
KPG1 032156Z 11006KT 36/14 A2996 RMK A01 T03580142  RH  027%=      5-min Rain = 0
KPG1 032157Z 13006KT 36/15 A2996 RMK A01 T03610145  RH  027%=      5-min Rain = 0
KPG1 032158Z 14008KT 36/15 A2996 RMK A01 T03640145  RH  027%=      5-min Rain = 0
KPG1 032159Z 13008KT 36/15 A2996 RMK A01 T03640145  RH  027%=      5-min Rain = 0
KPG1 032200Z 12007KT 36/14 A2996 RMK A01 T03620143  RH  027%=      5-min Rain = 0
KPG1 032201Z 11007KT 36/14 A2996 RMK A01 T03620142  RH  027%=      5-min Rain = 0
KPG1 032202Z 12006KT 36/14 A2996 RMK A01 T03620143  RH  027%=      5-min Rain = 0
KPG1 032203Z 13006KT 36/14 A2996 RMK A01 T03620143  RH  027%=      5-min Rain = 0
KPG1 032204Z 15008KT 36/14 A2996 RMK A01 T03620142  RH  027%=      5-min Rain = 0
KPG1 032205Z 13006KT 36/14 A2996 RMK A01 T03620141  RH  027%=      5-min Rain = 0
KPG1 032206Z 16005KT 36/14 A2996 RMK A01 T03610141  RH  027%=      5-min Rain = 0
KPG1 032207Z 16009KT 36/14 A2996 RMK A01 T03620142  RH  027%=      5-min Rain = 0
KPG1 032208Z 16010KT 36/14 A2996 RMK A01 T03640142  RH  027%=      5-min Rain = 0
KPG1 032209Z 16007KT 36/14 A2996 RMK A01 T03640142  RH  027%=      5-min Rain = 0
KPG1 032210Z 14007KT 36/14 A2996 RMK A01 T03610141  RH  027%=      5-min Rain = 0
KPG1 032211Z 16006KT 36/14 A2996 RMK A01 T03590140  RH  027%=      5-min Rain = 0
KPG1 032212Z 16005KT 36/14 A2995 RMK A01 T03590141  RH  027%=      5-min Rain = 0
KPG1 032213Z 13005KT 36/14 A2995 RMK A01 T03610141  RH  027%=      5-min Rain = 0
KPG1 032214Z 07003KT 36/14 A2995 RMK A01 T03610141  RH  027%=      5-min Rain = 0
KPG1 032215Z 08003KT 36/14 A2995 RMK A01 T03590141  RH  027%=      5-min Rain = 0
KPG1 032216Z 04005KT 36/14 A2995 RMK A01 T03590141  RH  027%=      5-min Rain = 0
KPG1 032217Z 03007KT 36/14 A2995 RMK A01 T03610141  RH  027%=      5-min Rain = 0
KPG1 032218Z 36004KT 36/14 A2995 RMK A01 T03620140  RH  027%=      5-min Rain = 0
KPG1 032219Z 35006KT 36/14 A2995 RMK A01 T03610140  RH  027%=      5-min Rain = 0
KPG1 032220Z 03001KT 36/14 A2995 RMK A01 T03590139  RH  027%=      5-min Rain = 0
KPG1 032221Z 04001KT 36/14 A2995 RMK A01 T03580139  RH  027%=      5-min Rain = 0
KPG1 032222Z 08001KT 36/14 A2995 RMK A01 T03610141  RH  027%=      5-min Rain = 0
KPG1 032223Z 02006KT 36/14 A2995 RMK A01 T03640142  RH  027%=      5-min Rain = 0
KPG1 032224Z 02008KT 37/14 A2995 RMK A01 T03650141  RH  026%=      5-min Rain = 0
KPG1 032225Z 02008KT 36/14 A2995 RMK A01 T03640141  RH  026%=      5-min Rain = 0
KPG1 032226Z 02007KT 36/14 A2995 RMK A01 T03630141  RH  027%=      5-min Rain = 0
KPG1 032227Z 03007KT 36/14 A2995 RMK A01 T03640142  RH  027%=      5-min Rain = 0
KPG1 032228Z 03006KT 36/14 A2995 RMK A01 T03630141  RH  027%=      5-min Rain = 0
KPG1 032229Z 04005KT 36/14 A2995 RMK A01 T03600140  RH  027%=      5-min Rain = 0
KPG1 032230Z 00006KT 36/14 A2994 RMK A01 T03590141  RH  027%=      5-min Rain = 0
KPG1 032231Z 03007KT 36/14 A2994 RMK A01 T03600143  RH  027%=      5-min Rain = 0
KPG1 032232Z 01005KT 36/14 A2994 RMK A01 T03630143  RH  027%=      5-min Rain = 0
KPG1 032233Z 01004KT 36/14 A2994 RMK A01 T03630144  RH  027%=      5-min Rain = 0
KPG1 032234Z 03003KT 36/14 A2994 RMK A01 T03620143  RH  027%=      5-min Rain = 0
KPG1 032235Z 03005KT 36/14 A2994 RMK A01 T03600143  RH  027%=      5-min Rain = 0
KPG1 032236Z 02003KT 36/15 A2994 RMK A01 T03610145  RH  027%=      5-min Rain = 0
KPG1 032237Z 03009KT 36/15 A2994 RMK A01 T03640146  RH  027%=      5-min Rain = 0
KPG1 032238Z 03010KT 36/15 A2994 RMK A01 T03640146  RH  027%=      5-min Rain = 0
KPG1 032239Z 05009KT 36/15 A2994 RMK A01 T03640147  RH  027%=      5-min Rain = 0
KPG1 032240Z 05008KT 37/15 A2994 RMK A01 T03650147  RH  027%=      5-min Rain = 0
KPG1 032241Z 06009KT 37/15 A2994 RMK A01 T03650146  RH  027%=      5-min Rain = 0
KPG1 032242Z 06008KT 36/15 A2994 RMK A01 T03630146  RH  027%=      5-min Rain = 0
KPG1 032243Z 05007KT 36/15 A2994 RMK A01 T03630146  RH  028%=      5-min Rain = 0
KPG1 032244Z 04008KT 36/15 A2994 RMK A01 T03620149  RH  028%=      5-min Rain = 0
KPG1 032245Z 04005KT 36/15 A2994 RMK A01 T03590151  RH  029%=      5-min Rain = 0
KPG1 032246Z 04007KT 36/15 A2994 RMK A01 T03590152  RH  029%=      5-min Rain = 0
KPG1 032247Z 04006KT 36/15 A2994 RMK A01 T03600152  RH  029%=      5-min Rain = 0
KPG1 032248Z 05006KT 36/15 A2994 RMK A01 T03600148  RH  028%=      5-min Rain = 0
KPG1 032249Z 07006KT 36/15 A2994 RMK A01 T03600146  RH  028%=      5-min Rain = 0
KPG1 032250Z 08009KT 36/14 A2994 RMK A01 T03610144  RH  027%=      5-min Rain = 0
KPG1 032251Z 09006KT 36/14 A2994 RMK A01 T03610143  RH  027%=      5-min Rain = 0
KPG1 032252Z 08006KT 36/14 A2994 RMK A01 T03600144  RH  027%=      5-min Rain = 0
KPG1 032253Z 12005KT 36/14 A2994 RMK A01 T03610143  RH  027%=      5-min Rain = 0
KPG1 032254Z 10007KT 36/14 A2994 RMK A01 T03630143  RH  027%=      5-min Rain = 0
KPG1 032255Z 08006KT 36/14 A2994 RMK A01 T03640143  RH  027%=      5-min Rain = 0
KPG1 032256Z 06006G11KT 36/14 A2994 RMK A01 T03620142  RH  027%=      5-min Rain = 0
KPG1 032257Z 05010KT 36/14 A2994 RMK A01 T03600142  RH  027%=      5-min Rain = 0
KPG1 032258Z 06008KT 36/14 A2994 RMK A01 T03600142  RH  027%=      5-min Rain = 0
KPG1 032259Z 07010KT 36/16 A2994 RMK A01 T03580155  RH  030%=      5-min Rain = 0
KPG1 032300Z 07010KT 36/16 A2994 RMK A01 T03550163  RH  032%=      5-min Rain = 0
KPG1 032301Z 03012KT 35/16 A2993 RMK A01 T03540164  RH  032%=      5-min Rain = 0
KPG1 032302Z 04011G17KT 35/17 A2993 RMK A01 T03540165  RH  033%=      5-min Rain = 0
KPG1 032303Z 04013KT 35/17 A2993 RMK A01 T03530165  RH  033%=      5-min Rain = 0
KPG1 032304Z 03010KT 35/17 A2993 RMK A01 T03530165  RH  033%=      5-min Rain = 0
KPG1 032305Z 03009KT 35/17 A2993 RMK A01 T03520166  RH  033%=      5-min Rain = 0
KPG1 032306Z 02009KT 35/17 A2993 RMK A01 T03520165  RH  033%=      5-min Rain = 0
KPG1 032307Z 04010G15KT 35/17 A2993 RMK A01 T03540165  RH  032%=      5-min Rain = 0
KPG1 032308Z 05010KT 36/16 A2993 RMK A01 T03570161  RH  031%=      5-min Rain = 0
KPG1 032309Z 04006KT 36/16 A2993 RMK A01 T03580159  RH  031%=      5-min Rain = 0
KPG1 032310Z 07008KT 36/16 A2993 RMK A01 T03590159  RH  031%=      5-min Rain = 0
KPG1 032311Z 07006KT 36/16 A2993 RMK A01 T03580159  RH  031%=      5-min Rain = 0
KPG1 032312Z 06007G13KT 36/16 A2993 RMK A01 T03560157  RH  031%=      5-min Rain = 0
KPG1 032313Z 07012G18KT 36/15 A2993 RMK A01 T03570152  RH  030%=      5-min Rain = 0
KPG1 032314Z 06013KT 36/15 A2993 RMK A01 T03580152  RH  029%=      5-min Rain = 0
KPG1 032315Z 05010KT 36/15 A2993 RMK A01 T03560154  RH  030%=      5-min Rain = 0
KPG1 032316Z 07012KT 36/16 A2993 RMK A01 T03550156  RH  031%=      5-min Rain = 0
KPG1 032317Z 09009KT 35/16 A2993 RMK A01 T03540159  RH  031%=      5-min Rain = 0
KPG1 032318Z 08009KT 35/16 A2993 RMK A01 T03540158  RH  031%=      5-min Rain = 0
KPG1 032319Z 07009G14KT 35/16 A2993 RMK A01 T03540160  RH  031%=      5-min Rain = 0
KPG1 032320Z 08011KT 35/17 A2993 RMK A01 T03530167  RH  033%=      5-min Rain = 0
KPG1 032321Z 03009KT 35/17 A2993 RMK A01 T03520168  RH  034%=      5-min Rain = 0
KPG1 032322Z 04012KT 35/17 A2993 RMK A01 T03520168  RH  034%=      5-min Rain = 0
KPG1 032323Z 07010KT 35/17 A2993 RMK A01 T03510167  RH  034%=      5-min Rain = 0
KPG1 032324Z 05010KT 35/17 A2993 RMK A01 T03520167  RH  033%=      5-min Rain = 0
KPG1 032325Z 03012KT 35/17 A2993 RMK A01 T03520167  RH  033%=      5-min Rain = 0
KPG1 032326Z 04010KT 35/17 A2993 RMK A01 T03520168  RH  034%=      5-min Rain = 0
KPG1 032327Z 03011G16KT 35/17 A2993 RMK A01 T03510168  RH  034%=      5-min Rain = 0
KPG1 032328Z 04012KT 35/17 A2993 RMK A01 T03520169  RH  034%=      5-min Rain = 0
KPG1 032329Z 04012KT 35/17 A2993 RMK A01 T03510169  RH  034%=      5-min Rain = 0
KPG1 032330Z 05010KT 35/17 A2993 RMK A01 T03510169  RH  034%=      5-min Rain = 0
KPG1 032331Z 03011KT 35/17 A2993 RMK A01 T03520169  RH  034%=      5-min Rain = 0
KPG1 032332Z 03013G20KT 35/17 A2993 RMK A01 T03520169  RH  034%=      5-min Rain = 0
KPG1 032333Z 03017G25KT 35/17 A2993 RMK A01 T03510169  RH  034%=      5-min Rain = 0
KPG1 032334Z 04015G22KT 35/17 A2992 RMK A01 T03500169  RH  034%=      5-min Rain = 0
KPG1 032335Z 03014G19KT 35/17 A2993 RMK A01 T03500169  RH  034%=      5-min Rain = 0
KPG1 032336Z 06012KT 35/17 A2993 RMK A01 T03490169  RH  035%=      5-min Rain = 0
KPG1 032337Z 06012G17KT 35/17 A2993 RMK A01 T03490170  RH  034%=      5-min Rain = 0
KPG1 032338Z 05013G19KT 35/17 A2993 RMK A01 T03500170  RH  034%=      5-min Rain = 0
KPG1 032339Z 03013KT 35/17 A2993 RMK A01 T03490170  RH  035%=      5-min Rain = 0
KPG1 032340Z 03012KT 35/17 A2993 RMK A01 T03480170  RH  035%=      5-min Rain = 0
KPG1 032341Z 03012KT 35/17 A2993 RMK A01 T03470170  RH  035%=      5-min Rain = 0
KPG1 032342Z 03015KT 35/17 A2992 RMK A01 T03480170  RH  035%=      5-min Rain = 0
KPG1 032343Z 05014KT 35/17 A2993 RMK A01 T03470170  RH  035%=      5-min Rain = 0
KPG1 032344Z 06014KT 35/17 A2993 RMK A01 T03470169  RH  035%=      5-min Rain = 0
KPG1 032345Z 07012KT 35/17 A2993 RMK A01 T03470168  RH  035%=      5-min Rain = 0
KPG1 032346Z 07012KT 35/17 A2993 RMK A01 T03470169  RH  035%=      5-min Rain = 0
KPG1 032347Z 07015KT 35/17 A2993 RMK A01 T03470169  RH  035%=      5-min Rain = 0
KPG1 032348Z 07013KT 35/17 A2993 RMK A01 T03460169  RH  035%=      5-min Rain = 0
KPG1 032349Z 06012KT 35/17 A2993 RMK A01 T03450169  RH  035%=      5-min Rain = 0
KPG1 032350Z 07016KT 35/17 A2993 RMK A01 T03460170  RH  035%=      5-min Rain = 0
KPG1 032351Z 05014KT 35/17 A2993 RMK A01 T03460169  RH  035%=      5-min Rain = 0
KPG1 032352Z 05013KT 35/17 A2993 RMK A01 T03470169  RH  035%=      5-min Rain = 0
KPG1 032353Z 03010KT 35/17 A2993 RMK A01 T03470169  RH  035%=      5-min Rain = 0
KPG1 032354Z 03012KT 35/17 A2993 RMK A01 T03470169  RH  035%=      5-min Rain = 0
KPG1 032355Z 02011KT 35/17 A2992 RMK A01 T03460169  RH  035%=      5-min Rain = 0
KPG1 032356Z 03012KT 35/17 A2992 RMK A01 T03460170  RH  035%=      5-min Rain = 0
KPG1 032357Z 06014KT 35/17 A2992 RMK A01 T03460170  RH  035%=      5-min Rain = 0
KPG1 032358Z 08012KT 35/17 A2993 RMK A01 T03480168  RH  034%=      5-min Rain = 0
KPG1 032359Z 09011KT 35/17 A2993 RMK A01 T03490168  RH  034%=      5-min Rain = 0
KPG1 040000Z 07008KT 35/17 A2993 RMK A01 T03480168  RH  034%=      5-min Rain = 0
KPG1 040001Z 06013KT 35/17 A2993 RMK A01 T03480168  RH  034%=      5-min Rain = 0
KPG1 040002Z 05011KT 35/17 A2993 RMK A01 T03480169  RH  035%=      5-min Rain = 0
KPG1 040003Z 04011KT 35/17 A2993 RMK A01 T03460168  RH  035%=      5-min Rain = 0
KPG1 040004Z 05009KT 35/17 A2993 RMK A01 T03460169  RH  035%=      5-min Rain = 0
KPG1 040005Z 06009KT 35/17 A2993 RMK A01 T03460169  RH  035%=      5-min Rain = 0
KPG1 040006Z 05008KT 35/17 A2993 RMK A01 T03460170  RH  035%=      5-min Rain = 0
KPG1 040007Z 07009G14KT 35/17 A2993 RMK A01 T03460170  RH  035%=      5-min Rain = 0
KPG1 040008Z 06010G15KT 35/17 A2993 RMK A01 T03460170  RH  035%=      5-min Rain = 0
KPG1 040009Z 05011KT 35/17 A2993 RMK A01 T03470171  RH  035%=      5-min Rain = 0
KPG1 040010Z 03011KT 35/17 A2993 RMK A01 T03460171  RH  035%=      5-min Rain = 0
KPG1 040011Z 05010KT 35/17 A2993 RMK A01 T03450171  RH  036%=      5-min Rain = 0
KPG1 040012Z 06011KT 34/17 A2993 RMK A01 T03440171  RH  036%=      5-min Rain = 0
KPG1 040013Z 07009KT 35/17 A2993 RMK A01 T03450169  RH  035%=      5-min Rain = 0
KPG1 040014Z 06011KT 35/17 A2993 RMK A01 T03450169  RH  035%=      5-min Rain = 0
KPG1 040015Z 05012KT 34/17 A2993 RMK A01 T03440169  RH  035%=      5-min Rain = 0
KPG1 040016Z 05012KT 34/17 A2993 RMK A01 T03440169  RH  035%=      5-min Rain = 0
KPG1 040017Z 05009G14KT 34/17 A2993 RMK A01 T03430169  RH  036%=      5-min Rain = 0
KPG1 040018Z 07008KT 34/17 A2993 RMK A01 T03430169  RH  036%=      5-min Rain = 0
KPG1 040019Z 08009KT 34/17 A2993 RMK A01 T03440170  RH  036%=      5-min Rain = 0
KPG1 040020Z 08009KT 34/17 A2993 RMK A01 T03440170  RH  036%=      5-min Rain = 0
KPG1 040021Z 05008KT 34/17 A2993 RMK A01 T03440170  RH  036%=      5-min Rain = 0
KPG1 040022Z 06007KT 34/17 A2993 RMK A01 T03440170  RH  036%=      5-min Rain = 0
KPG1 040023Z 07007KT 34/17 A2993 RMK A01 T03440170  RH  036%=      5-min Rain = 0
KPG1 040024Z 07007KT 34/17 A2993 RMK A01 T03440170  RH  036%=      5-min Rain = 0
KPG1 040025Z 06009KT 34/17 A2993 RMK A01 T03440170  RH  036%=      5-min Rain = 0
KPG1 040026Z 06008KT 34/17 A2993 RMK A01 T03440170  RH  035%=      5-min Rain = 0
KPG1 040027Z 06008KT 34/17 A2993 RMK A01 T03440170  RH  036%=      5-min Rain = 0
KPG1 040028Z 07009KT 34/17 A2993 RMK A01 T03430170  RH  036%=      5-min Rain = 0
KPG1 040029Z 06008KT 34/17 A2993 RMK A01 T03430170  RH  036%=      5-min Rain = 0
KPG1 040030Z 06011KT 34/17 A2994 RMK A01 T03430170  RH  036%=      5-min Rain = 0
KPG1 040031Z 06010KT 34/17 A2993 RMK A01 T03420170  RH  036%=      5-min Rain = 0
KPG1 040032Z 05008KT 34/17 A2993 RMK A01 T03420170  RH  036%=      5-min Rain = 0
KPG1 040033Z 06011KT 34/17 A2994 RMK A01 T03410170  RH  036%=      5-min Rain = 0
KPG1 040034Z 07009KT 34/17 A2994 RMK A01 T03410170  RH  036%=      5-min Rain = 0
KPG1 040035Z 06007G12KT 34/17 A2993 RMK A01 T03410170  RH  036%=      5-min Rain = 0
KPG1 040036Z 07009G15KT 34/17 A2993 RMK A01 T03420170  RH  036%=      5-min Rain = 0
KPG1 040037Z 09008KT 34/17 A2994 RMK A01 T03420170  RH  036%=      5-min Rain = 0
KPG1 040038Z 07007KT 34/17 A2993 RMK A01 T03410169  RH  036%=      5-min Rain = 0
KPG1 040039Z 09008KT 34/17 A2993 RMK A01 T03410169  RH  036%=      5-min Rain = 0
KPG1 040040Z 08007KT 34/17 A2993 RMK A01 T03410169  RH  036%=      5-min Rain = 0
KPG1 040041Z 07007KT 34/17 A2994 RMK A01 T03410169  RH  036%=      5-min Rain = 0
KPG1 040042Z 08006KT 34/17 A2994 RMK A01 T03410169  RH  036%=      5-min Rain = 0
KPG1 040043Z 06007KT 34/17 A2994 RMK A01 T03410169  RH  036%=      5-min Rain = 0
KPG1 040044Z 06009KT 34/17 A2994 RMK A01 T03410169  RH  036%=      5-min Rain = 0
KPG1 040045Z 06009KT 34/17 A2994 RMK A01 T03410169  RH  036%=      5-min Rain = 0
KPG1 040046Z 05009KT 34/17 A2994 RMK A01 T03410169  RH  036%=      5-min Rain = 0
KPG1 040047Z 07009G16KT 34/17 A2994 RMK A01 T03410169  RH  036%=      5-min Rain = 0
KPG1 040048Z 08007G13KT 34/17 A2994 RMK A01 T03400169  RH  036%=      5-min Rain = 0
KPG1 040049Z 10010KT 34/17 A2994 RMK A01 T03400169  RH  036%=      5-min Rain = 0
KPG1 040050Z 07010KT 34/17 A2994 RMK A01 T03400168  RH  036%=      5-min Rain = 0
KPG1 040051Z 05009KT 34/17 A2994 RMK A01 T03400168  RH  036%=      5-min Rain = 0
KPG1 040052Z 06010KT 34/17 A2994 RMK A01 T03400168  RH  036%=      5-min Rain = 0
KPG1 040053Z 08008KT 34/17 A2994 RMK A01 T03400168  RH  036%=      5-min Rain = 0
KPG1 040054Z 06010KT 34/17 A2994 RMK A01 T03400168  RH  036%=      5-min Rain = 0
KPG1 040055Z 06009KT 34/17 A2993 RMK A01 T03390168  RH  036%=      5-min Rain = 0
KPG1 040056Z 07011KT 34/17 A2994 RMK A01 T03390168  RH  036%=      5-min Rain = 0
KPG1 040057Z 05011KT 34/17 A2994 RMK A01 T03390168  RH  036%=      5-min Rain = 0
KPG1 040058Z 05010KT 34/17 A2994 RMK A01 T03390167  RH  036%=      5-min Rain = 0
KPG1 040059Z 06011KT 34/17 A2994 RMK A01 T03390168  RH  036%=      5-min Rain = 0
KPG1 040100Z 06011KT 34/17 A2994 RMK A01 T03390168  RH  036%=      5-min Rain = 0
KPG1 040101Z 06013KT 34/17 A2994 RMK A01 T03390167  RH  036%=      5-min Rain = 0
KPG1 040102Z 07009KT 34/17 A2994 RMK A01 T03390167  RH  036%=      5-min Rain = 0
KPG1 040103Z 05009KT 34/17 A2994 RMK A01 T03380167  RH  036%=      5-min Rain = 0
KPG1 040104Z 06009KT 34/17 A2994 RMK A01 T03390167  RH  036%=      5-min Rain = 0
KPG1 040105Z 07006KT 34/17 A2994 RMK A01 T03380167  RH  036%=      5-min Rain = 0
KPG1 040106Z 06011KT 34/17 A2994 RMK A01 T03380167  RH  036%=      5-min Rain = 0
KPG1 040107Z 06010KT 34/17 A2994 RMK A01 T03380166  RH  036%=      5-min Rain = 0
KPG1 040108Z 06012KT 34/17 A2994 RMK A01 T03380166  RH  036%=      5-min Rain = 0
KPG1 040109Z 05012KT 34/17 A2994 RMK A01 T03380165  RH  036%=      5-min Rain = 0
KPG1 040110Z 06008KT 34/17 A2994 RMK A01 T03380166  RH  036%=      5-min Rain = 0
KPG1 040111Z 08008KT 34/17 A2994 RMK A01 T03380166  RH  036%=      5-min Rain = 0
KPG1 040112Z 06008KT 34/17 A2994 RMK A01 T03380165  RH  036%=      5-min Rain = 0
KPG1 040113Z 07010G15KT 34/17 A2994 RMK A01 T03370165  RH  036%=      5-min Rain = 0
KPG1 040114Z 06012KT 34/17 A2994 RMK A01 T03380165  RH  036%=      5-min Rain = 0
KPG1 040115Z 06010KT 34/17 A2994 RMK A01 T03380165  RH  036%=      5-min Rain = 0
KPG1 040116Z 06009KT 34/17 A2994 RMK A01 T03380165  RH  036%=      5-min Rain = 0
KPG1 040117Z 07008G13KT 34/17 A2994 RMK A01 T03380165  RH  036%=      5-min Rain = 0
KPG1 040118Z 06012KT 34/16 A2994 RMK A01 T03380164  RH  035%=      5-min Rain = 0
KPG1 040119Z 06013KT 34/16 A2994 RMK A01 T03380164  RH  035%=      5-min Rain = 0
KPG1 040120Z 06013KT 34/16 A2994 RMK A01 T03380164  RH  035%=      5-min Rain = 0
KPG1 040121Z 06012KT 34/16 A2994 RMK A01 T03370163  RH  035%=      5-min Rain = 0
KPG1 040122Z 06011KT 34/16 A2994 RMK A01 T03370163  RH  035%=      5-min Rain = 0
KPG1 040123Z 06010KT 34/16 A2994 RMK A01 T03370162  RH  035%=      5-min Rain = 0
KPG1 040124Z 07014KT 34/16 A2994 RMK A01 T03370162  RH  035%=      5-min Rain = 0
KPG1 040125Z 05013G19KT 34/16 A2994 RMK A01 T03370162  RH  035%=      5-min Rain = 0
KPG1 040126Z 06016KT 34/16 A2994 RMK A01 T03370162  RH  035%=      5-min Rain = 0
KPG1 040127Z 06014KT 34/16 A2994 RMK A01 T03370162  RH  035%=      5-min Rain = 0
KPG1 040128Z 06015KT 34/16 A2994 RMK A01 T03360161  RH  035%=      5-min Rain = 0
KPG1 040129Z 06016KT 34/16 A2994 RMK A01 T03360161  RH  035%=      5-min Rain = 0
KPG1 040130Z 05013G18KT 34/16 A2994 RMK A01 T03360161  RH  035%=      5-min Rain = 0
KPG1 040131Z 06012KT 34/16 A2994 RMK A01 T03360161  RH  035%=      5-min Rain = 0
KPG1 040132Z 05011G16KT 34/16 A2994 RMK A01 T03360161  RH  035%=      5-min Rain = 0
KPG1 040133Z 05011KT 34/16 A2994 RMK A01 T03360161  RH  035%=      5-min Rain = 0
KPG1 040134Z 05009KT 34/16 A2994 RMK A01 T03360160  RH  035%=      5-min Rain = 0
KPG1 040135Z 05010KT 34/16 A2994 RMK A01 T03360160  RH  035%=      5-min Rain = 0
KPG1 040136Z 06009KT 34/16 A2994 RMK A01 T03360160  RH  035%=      5-min Rain = 0
KPG1 040137Z 07012KT 34/16 A2994 RMK A01 T03360160  RH  035%=      5-min Rain = 0
KPG1 040138Z 06011KT 34/16 A2994 RMK A01 T03350159  RH  035%=      5-min Rain = 0
KPG1 040139Z 07012G17KT 34/16 A2994 RMK A01 T03350159  RH  035%=      5-min Rain = 0
KPG1 040140Z 06010KT 33/16 A2994 RMK A01 T03340159  RH  035%=      5-min Rain = 0
KPG1 040141Z 06009KT 33/16 A2994 RMK A01 T03340160  RH  035%=      5-min Rain = 0
KPG1 040142Z 07014KT 33/16 A2994 RMK A01 T03340159  RH  035%=      5-min Rain = 0
KPG1 040143Z 06013KT 33/16 A2994 RMK A01 T03340159  RH  035%=      5-min Rain = 0
KPG1 040144Z 06011KT 33/16 A2994 RMK A01 T03340159  RH  035%=      5-min Rain = 0
KPG1 040145Z 06011KT 33/16 A2994 RMK A01 T03340159  RH  035%=      5-min Rain = 0
KPG1 040146Z 07009KT 33/16 A2994 RMK A01 T03340159  RH  035%=      5-min Rain = 0
KPG1 040147Z 05010KT 33/16 A2994 RMK A01 T03340159  RH  035%=      5-min Rain = 0
KPG1 040148Z 06012KT 33/16 A2994 RMK A01 T03340159  RH  035%=      5-min Rain = 0
KPG1 040149Z 06011KT 33/16 A2994 RMK A01 T03340159  RH  035%=      5-min Rain = 0
KPG1 040150Z 06013KT 33/16 A2994 RMK A01 T03340159  RH  035%=      5-min Rain = 0
KPG1 040151Z 06016KT 33/16 A2994 RMK A01 T03330158  RH  035%=      5-min Rain = 0
KPG1 040152Z 06013KT 33/16 A2995 RMK A01 T03320158  RH  035%=      5-min Rain = 0
KPG1 040153Z 05011G16KT 33/16 A2994 RMK A01 T03330158  RH  035%=      5-min Rain = 0
KPG1 040154Z 06011KT 33/16 A2995 RMK A01 T03330159  RH  035%=      5-min Rain = 0
KPG1 040155Z 06011G16KT 33/16 A2995 RMK A01 T03320158  RH  035%=      5-min Rain = 0
KPG1 040156Z 05009KT 33/16 A2995 RMK A01 T03320158  RH  035%=      5-min Rain = 0
KPG1 040157Z 04012KT 33/16 A2995 RMK A01 T03320158  RH  035%=      5-min Rain = 0
KPG1 040158Z 04011KT 33/16 A2995 RMK A01 T03320158  RH  035%=      5-min Rain = 0
KPG1 040159Z 05011KT 33/16 A2995 RMK A01 T03310158  RH  035%=      5-min Rain = 0
KPG1 040200Z 07013KT 33/16 A2995 RMK A01 T03310158  RH  035%=      5-min Rain = 0
KPG1 040201Z 04010KT 33/16 A2995 RMK A01 T03310158  RH  035%=      5-min Rain = 0
KPG1 040202Z 05009KT 33/16 A2995 RMK A01 T03310158  RH  035%=      5-min Rain = 0
KPG1 040203Z 05008KT 33/16 A2995 RMK A01 T03300158  RH  036%=      5-min Rain = 0
KPG1 040204Z 04008KT 33/16 A2995 RMK A01 T03300158  RH  036%=      5-min Rain = 0
KPG1 040205Z 05011KT 33/16 A2995 RMK A01 T03300158  RH  036%=      5-min Rain = 0
KPG1 040206Z 05011KT 33/16 A2995 RMK A01 T03300158  RH  036%=      5-min Rain = 0
KPG1 040207Z 05009KT 33/16 A2995 RMK A01 T03300158  RH  036%=      5-min Rain = 0
KPG1 040208Z 06010KT 33/16 A2995 RMK A01 T03300158  RH  036%=      5-min Rain = 0
KPG1 040209Z 05010KT 33/16 A2995 RMK A01 T03300158  RH  036%=      5-min Rain = 0
KPG1 040210Z 04008KT 33/16 A2995 RMK A01 T03290157  RH  036%=      5-min Rain = 0
KPG1 040211Z 04011KT 33/16 A2995 RMK A01 T03290157  RH  036%=      5-min Rain = 0
KPG1 040212Z 04010KT 33/16 A2995 RMK A01 T03290157  RH  036%=      5-min Rain = 0
KPG1 040213Z 04010KT 33/16 A2995 RMK A01 T03290157  RH  036%=      5-min Rain = 0
KPG1 040214Z 05009KT 33/16 A2996 RMK A01 T03280157  RH  036%=      5-min Rain = 0
KPG1 040215Z 06009KT 33/16 A2996 RMK A01 T03290157  RH  036%=      5-min Rain = 0
KPG1 040216Z 05009KT 33/16 A2996 RMK A01 T03290157  RH  036%=      5-min Rain = 0
KPG1 040217Z 06009KT 33/16 A2996 RMK A01 T03280157  RH  036%=      5-min Rain = 0
KPG1 040218Z 07009KT 33/16 A2996 RMK A01 T03280157  RH  036%=      5-min Rain = 0
KPG1 040219Z 05007KT 33/16 A2996 RMK A01 T03280157  RH  036%=      5-min Rain = 0
KPG1 040220Z 05009KT 33/16 A2996 RMK A01 T03280156  RH  036%=      5-min Rain = 0
KPG1 040221Z 04009KT 33/16 A2996 RMK A01 T03270156  RH  036%=      5-min Rain = 0
KPG1 040222Z 03012KT 33/16 A2996 RMK A01 T03280156  RH  036%=      5-min Rain = 0
KPG1 040223Z 03012KT 33/16 A2996 RMK A01 T03270157  RH  036%=      5-min Rain = 0
KPG1 040224Z 03013KT 33/16 A2996 RMK A01 T03270157  RH  036%=      5-min Rain = 0
KPG1 040225Z 03013KT 33/16 A2996 RMK A01 T03260158  RH  036%=      5-min Rain = 0
KPG1 040226Z 03014KT 33/16 A2996 RMK A01 T03260158  RH  036%=      5-min Rain = 0
KPG1 040227Z 03015KT 33/16 A2996 RMK A01 T03250158  RH  037%=      5-min Rain = 0
KPG1 040228Z 03015KT 33/16 A2996 RMK A01 T03250158  RH  037%=      5-min Rain = 0
KPG1 040229Z 03016KT 32/16 A2996 RMK A01 T03240158  RH  037%=      5-min Rain = 0
KPG1 040230Z 03014G22KT 32/16 A2996 RMK A01 T03240158  RH  037%=      5-min Rain = 0
KPG1 040231Z 04015G20KT 32/16 A2996 RMK A01 T03230158  RH  037%=      5-min Rain = 0
KPG1 040232Z 03013KT 32/16 A2996 RMK A01 T03230158  RH  037%=      5-min Rain = 0
KPG1 040233Z 03014KT 32/16 A2996 RMK A01 T03230158  RH  037%=      5-min Rain = 0
KPG1 040234Z 02014G19KT 32/16 A2996 RMK A01 T03230158  RH  037%=      5-min Rain = 0
KPG1 040235Z 02016KT 32/16 A2996 RMK A01 T03220157  RH  037%=      5-min Rain = 0
KPG1 040236Z 03016KT 32/16 A2996 RMK A01 T03230157  RH  037%=      5-min Rain = 0
KPG1 040237Z 04015KT 32/16 A2997 RMK A01 T03220157  RH  037%=      5-min Rain = 0
KPG1 040238Z 03014G20KT 32/16 A2997 RMK A01 T03220157  RH  037%=      5-min Rain = 0
KPG1 040239Z 03015KT 32/16 A2997 RMK A01 T03220157  RH  037%=      5-min Rain = 0
KPG1 040240Z 03013KT 32/16 A2997 RMK A01 T03220157  RH  037%=      5-min Rain = 0
KPG1 040241Z 03014G19KT 32/16 A2997 RMK A01 T03210156  RH  037%=      5-min Rain = 0
KPG1 040242Z 03014G20KT 32/16 A2997 RMK A01 T03210156  RH  037%=      5-min Rain = 0
KPG1 040243Z 03013KT 32/16 A2997 RMK A01 T03210156  RH  037%=      5-min Rain = 0
KPG1 040244Z 03013KT 32/16 A2997 RMK A01 T03210156  RH  037%=      5-min Rain = 0
KPG1 040245Z 02014KT 32/16 A2997 RMK A01 T03200156  RH  037%=      5-min Rain = 0
KPG1 040246Z 03014KT 32/16 A2997 RMK A01 T03200155  RH  037%=      5-min Rain = 0
KPG1 040247Z 02013KT 32/16 A2997 RMK A01 T03200155  RH  037%=      5-min Rain = 0
KPG1 040248Z 03014KT 32/15 A2997 RMK A01 T03200154  RH  037%=      5-min Rain = 0
KPG1 040249Z 02011KT 32/15 A2997 RMK A01 T03200154  RH  037%=      5-min Rain = 0
KPG1 040250Z 03013KT 32/15 A2997 RMK A01 T03200154  RH  037%=      5-min Rain = 0
KPG1 040251Z 03014KT 32/15 A2997 RMK A01 T03200153  RH  037%=      5-min Rain = 0
KPG1 040252Z 03013KT 32/15 A2997 RMK A01 T03200153  RH  037%=      5-min Rain = 0
KPG1 040253Z 04014KT 32/15 A2997 RMK A01 T03200153  RH  037%=      5-min Rain = 0
KPG1 040254Z 03014KT 32/15 A2997 RMK A01 T03190152  RH  036%=      5-min Rain = 0
KPG1 040255Z 03013KT 32/15 A2997 RMK A01 T03190152  RH  036%=      5-min Rain = 0
KPG1 040256Z 02012KT 32/15 A2997 RMK A01 T03190152  RH  036%=      5-min Rain = 0
KPG1 040257Z 02013KT 32/15 A2997 RMK A01 T03190152  RH  036%=      5-min Rain = 0
KPG1 040258Z 04012KT 32/15 A2997 RMK A01 T03190152  RH  036%=      5-min Rain = 0
KPG1 040259Z 03015KT 32/15 A2997 RMK A01 T03190152  RH  036%=      5-min Rain = 0
KPG1 040300Z 03016KT 32/15 A2997 RMK A01 T03180151  RH  036%=      5-min Rain = 0
KPG1 040301Z 03014G20KT 32/15 A2997 RMK A01 T03180151  RH  036%=      5-min Rain = 0
KPG1 040302Z 03012KT 32/15 A2997 RMK A01 T03180151  RH  036%=      5-min Rain = 0
KPG1 040303Z 03014KT 32/15 A2997 RMK A01 T03180151  RH  036%=      5-min Rain = 0
KPG1 040304Z 03014KT 32/15 A2997 RMK A01 T03180151  RH  036%=      5-min Rain = 0
KPG1 040305Z 03012KT 32/15 A2997 RMK A01 T03180151  RH  036%=      5-min Rain = 0
KPG1 040306Z 03015KT 32/15 A2997 RMK A01 T03180151  RH  036%=      5-min Rain = 0
KPG1 040307Z 04012KT 32/15 A2998 RMK A01 T03170150  RH  036%=      5-min Rain = 0
KPG1 040308Z 03014KT 32/15 A2998 RMK A01 T03170149  RH  036%=      5-min Rain = 0
KPG1 040309Z 03014KT 32/15 A2998 RMK A01 T03170150  RH  036%=      5-min Rain = 0
KPG1 040310Z 03012KT 32/15 A2998 RMK A01 T03170149  RH  036%=      5-min Rain = 0
KPG1 040311Z 03013KT 32/15 A2998 RMK A01 T03170149  RH  036%=      5-min Rain = 0
KPG1 040312Z 03013KT 32/15 A2998 RMK A01 T03170149  RH  036%=      5-min Rain = 0
KPG1 040313Z 03012KT 32/15 A2998 RMK A01 T03160149  RH  036%=      5-min Rain = 0
KPG1 040314Z 03013KT 32/15 A2998 RMK A01 T03160149  RH  036%=      5-min Rain = 0
KPG1 040315Z 03012KT 32/15 A2998 RMK A01 T03160148  RH  036%=      5-min Rain = 0
KPG1 040316Z 05009KT 32/15 A2998 RMK A01 T03160148  RH  036%=      5-min Rain = 0
KPG1 040317Z 03012KT 32/15 A2998 RMK A01 T03150148  RH  036%=      5-min Rain = 0
KPG1 040318Z 03011KT 32/15 A2998 RMK A01 T03150148  RH  036%=      5-min Rain = 0
KPG1 040319Z 04011KT 32/15 A2998 RMK A01 T03150148  RH  036%=      5-min Rain = 0
KPG1 040320Z 03012KT 32/15 A2998 RMK A01 T03150148  RH  036%=      5-min Rain = 0
KPG1 040321Z 03012KT 32/15 A2998 RMK A01 T03150147  RH  036%=      5-min Rain = 0
KPG1 040322Z 03013KT 32/15 A2998 RMK A01 T03150147  RH  036%=      5-min Rain = 0
KPG1 040323Z 03011KT 32/15 A2998 RMK A01 T03150147  RH  036%=      5-min Rain = 0
KPG1 040324Z 03009KT 31/15 A2998 RMK A01 T03140147  RH  036%=      5-min Rain = 0
KPG1 040325Z 03012KT 31/15 A2998 RMK A01 T03140147  RH  036%=      5-min Rain = 0
KPG1 040326Z 02012G17KT 31/15 A2998 RMK A01 T03140147  RH  036%=      5-min Rain = 0
KPG1 040327Z 02011KT 31/15 A2998 RMK A01 T03140147  RH  036%=      5-min Rain = 0
KPG1 040328Z 03009KT 31/15 A2998 RMK A01 T03130147  RH  036%=      5-min Rain = 0
KPG1 040329Z 03011KT 31/15 A2998 RMK A01 T03130147  RH  036%=      5-min Rain = 0
KPG1 040330Z 03010KT 31/15 A2998 RMK A01 T03140147  RH  036%=      5-min Rain = 0
KPG1 040331Z 03009KT 31/15 A2998 RMK A01 T03130146  RH  036%=      5-min Rain = 0
KPG1 040332Z 03011KT 31/15 A2998 RMK A01 T03130146  RH  036%=      5-min Rain = 0
KPG1 040333Z 03010KT 31/15 A2998 RMK A01 T03130146  RH  036%=      5-min Rain = 0
KPG1 040334Z 03009KT 31/15 A2998 RMK A01 T03130146  RH  036%=      5-min Rain = 0
KPG1 040335Z 03010KT 31/15 A2998 RMK A01 T03120146  RH  036%=      5-min Rain = 0
KPG1 040336Z 03011KT 31/15 A2998 RMK A01 T03120145  RH  036%=      5-min Rain = 0
KPG1 040337Z 03011KT 31/15 A2998 RMK A01 T03120145  RH  036%=      5-min Rain = 0
KPG1 040338Z 03011KT 31/15 A2998 RMK A01 T03120145  RH  036%=      5-min Rain = 0
KPG1 040339Z 02012KT 31/15 A2998 RMK A01 T03120145  RH  036%=      5-min Rain = 0
KPG1 040340Z 03010KT 31/15 A2998 RMK A01 T03120145  RH  036%=      5-min Rain = 0
KPG1 040341Z 03010KT 31/15 A2999 RMK A01 T03120145  RH  036%=      5-min Rain = 0
KPG1 040342Z 02011KT 31/15 A2998 RMK A01 T03110145  RH  036%=      5-min Rain = 0
KPG1 040343Z 03011KT 31/15 A2998 RMK A01 T03110145  RH  037%=      5-min Rain = 0
KPG1 040344Z 02010KT 31/15 A2999 RMK A01 T03110145  RH  037%=      5-min Rain = 0
KPG1 040345Z 03010KT 31/15 A2999 RMK A01 T03110146  RH  037%=      5-min Rain = 0
KPG1 040346Z 03010KT 31/15 A2999 RMK A01 T03110145  RH  037%=      5-min Rain = 0
KPG1 040347Z 03011KT 31/15 A2999 RMK A01 T03100145  RH  037%=      5-min Rain = 0
KPG1 040348Z 03010KT 31/15 A2999 RMK A01 T03100145  RH  037%=      5-min Rain = 0
KPG1 040349Z 03011KT 31/15 A2999 RMK A01 T03100145  RH  037%=      5-min Rain = 0
KPG1 040350Z 03010KT 31/15 A2999 RMK A01 T03090145  RH  037%=      5-min Rain = 0
KPG1 040351Z 03009KT 31/15 A2999 RMK A01 T03090145  RH  037%=      5-min Rain = 0
KPG1 040352Z 03009KT 31/15 A2999 RMK A01 T03090145  RH  037%=      5-min Rain = 0
KPG1 040353Z 02009KT 31/15 A2999 RMK A01 T03080145  RH  037%=      5-min Rain = 0
KPG1 040354Z 02010KT 31/15 A2999 RMK A01 T03070145  RH  037%=      5-min Rain = 0
KPG1 040355Z 02011KT 31/15 A2999 RMK A01 T03070145  RH  037%=      5-min Rain = 0
KPG1 040356Z 02011KT 31/15 A2999 RMK A01 T03070145  RH  037%=      5-min Rain = 0
KPG1 040357Z 02011KT 31/15 A2999 RMK A01 T03080145  RH  037%=      5-min Rain = 0
KPG1 040358Z 02010KT 31/14 A2999 RMK A01 T03070144  RH  037%=      5-min Rain = 0
KPG1 040359Z 01010KT 31/14 A2999 RMK A01 T03070144  RH  037%=      5-min Rain = 0
KPG1 040400Z 02011KT 31/14 A2999 RMK A01 T03070144  RH  037%=      5-min Rain = 0
KPG1 040401Z 02012KT 31/14 A2999 RMK A01 T03070144  RH  037%=      5-min Rain = 0
KPG1 040402Z 02009KT 31/14 A2999 RMK A01 T03070144  RH  037%=      5-min Rain = 0
KPG1 040403Z 02009KT 31/14 A2999 RMK A01 T03070144  RH  037%=      5-min Rain = 0
KPG1 040404Z 02009KT 31/14 A2999 RMK A01 T03070143  RH  037%=      5-min Rain = 0
KPG1 040405Z 01010KT 31/14 A30 RMK A01 T03070143  RH  037%=      5-min Rain = 0
KPG1 040406Z 02009KT 31/14 A30 RMK A01 T03070144  RH  037%=      5-min Rain = 0
KPG1 040407Z 02010KT 31/14 A30 RMK A01 T03070143  RH  037%=      5-min Rain = 0
KPG1 040408Z 02009KT 31/14 A30 RMK A01 T03060143  RH  037%=      5-min Rain = 0
KPG1 040409Z 02009KT 31/14 A30 RMK A01 T03070143  RH  037%=      5-min Rain = 0
KPG1 040410Z 01008KT 31/14 A30 RMK A01 T03060143  RH  037%=      5-min Rain = 0
KPG1 040411Z 03007KT 31/14 A30 RMK A01 T03070143  RH  037%=      5-min Rain = 0
KPG1 040412Z 02008KT 31/14 A30 RMK A01 T03060143  RH  037%=      5-min Rain = 0
KPG1 040413Z 02010KT 31/14 A30 RMK A01 T03060143  RH  037%=      5-min Rain = 0
KPG1 040414Z 02009KT 31/14 A30 RMK A01 T03060143  RH  037%=      5-min Rain = 0
KPG1 040415Z 03008KT 31/14 A30 RMK A01 T03060143  RH  037%=      5-min Rain = 0
KPG1 040416Z 04007KT 31/14 A30 RMK A01 T03050143  RH  037%=      5-min Rain = 0
KPG1 040417Z 02007KT 30/14 A30 RMK A01 T03040143  RH  037%=      5-min Rain = 0
KPG1 040418Z 02008KT 30/14 A30 RMK A01 T03030143  RH  038%=      5-min Rain = 0
KPG1 040419Z 02009KT 30/14 A30 RMK A01 T03030142  RH  038%=      5-min Rain = 0
KPG1 040420Z 03007KT 30/14 A30 RMK A01 T03030142  RH  037%=      5-min Rain = 0
KPG1 040421Z 02006KT 30/14 A3001 RMK A01 T03030142  RH  037%=      5-min Rain = 0
KPG1 040422Z 02006KT 30/14 A3001 RMK A01 T03030142  RH  037%=      5-min Rain = 0
KPG1 040423Z 01006KT 30/14 A3001 RMK A01 T03030142  RH  037%=      5-min Rain = 0
KPG1 040424Z 01006KT 30/14 A3001 RMK A01 T03030142  RH  037%=      5-min Rain = 0
KPG1 040425Z 02006KT 30/14 A3001 RMK A01 T03030142  RH  037%=      5-min Rain = 0
KPG1 040426Z 01006KT 30/14 A3001 RMK A01 T03030142  RH  037%=      5-min Rain = 0
KPG1 040427Z 02005KT 30/14 A3001 RMK A01 T03040142  RH  037%=      5-min Rain = 0
KPG1 040428Z 01006KT 30/14 A3001 RMK A01 T03040142  RH  037%=      5-min Rain = 0
KPG1 040429Z 03005KT 30/14 A3001 RMK A01 T03040142  RH  037%=      5-min Rain = 0
KPG1 040430Z 05005KT 30/14 A3001 RMK A01 T03030142  RH  038%=      5-min Rain = 0
KPG1 040431Z 04007KT 30/14 A3001 RMK A01 T03020142  RH  038%=      5-min Rain = 0
KPG1 040432Z 04007KT 30/14 A3001 RMK A01 T03010142  RH  038%=      5-min Rain = 0
KPG1 040433Z 03006KT 30/14 A3001 RMK A01 T03000142  RH  038%=      5-min Rain = 0
KPG1 040434Z 02007KT 30/14 A3001 RMK A01 T03000142  RH  038%=      5-min Rain = 0
KPG1 040435Z 02008KT 30/14 A3001 RMK A01 T02990142  RH  038%=      5-min Rain = 0
KPG1 040436Z 03007KT 30/14 A3001 RMK A01 T03000142  RH  038%=      5-min Rain = 0
KPG1 040437Z 03007KT 30/14 A3001 RMK A01 T02990142  RH  038%=      5-min Rain = 0
KPG1 040438Z 02008KT 30/14 A3001 RMK A01 T02990142  RH  038%=      5-min Rain = 0
KPG1 040439Z 03008KT 30/14 A3001 RMK A01 T02990143  RH  038%=      5-min Rain = 0
KPG1 040440Z 03008KT 30/14 A3001 RMK A01 T02990142  RH  038%=      5-min Rain = 0
KPG1 040441Z 03007KT 30/14 A3001 RMK A01 T02990142  RH  038%=      5-min Rain = 0
KPG1 040442Z 03008KT 30/14 A3001 RMK A01 T02980142  RH  039%=      5-min Rain = 0
KPG1 040443Z 03007KT 30/14 A3001 RMK A01 T02980142  RH  039%=      5-min Rain = 0
KPG1 040444Z 03007KT 30/14 A3001 RMK A01 T02980142  RH  039%=      5-min Rain = 0
KPG1 040445Z 03007KT 30/14 A3002 RMK A01 T02970142  RH  039%=      5-min Rain = 0
KPG1 040446Z 03006KT 30/14 A3002 RMK A01 T02960142  RH  039%=      5-min Rain = 0
KPG1 040447Z 04006KT 30/14 A3002 RMK A01 T02950142  RH  039%=      5-min Rain = 0
KPG1 040448Z 05007KT 30/14 A3002 RMK A01 T02950142  RH  039%=      5-min Rain = 0
KPG1 040449Z 04007KT 29/14 A3002 RMK A01 T02940142  RH  039%=      5-min Rain = 0
KPG1 040450Z 04008KT 29/14 A3002 RMK A01 T02940142  RH  039%=      5-min Rain = 0
KPG1 040451Z 03009KT 29/14 A3001 RMK A01 T02940142  RH  039%=      5-min Rain = 0
KPG1 040452Z 04008KT 30/14 A3001 RMK A01 T02950142  RH  039%=      5-min Rain = 0
KPG1 040453Z 04008KT 30/14 A3001 RMK A01 T02960142  RH  039%=      5-min Rain = 0
KPG1 040454Z 04008KT 30/14 A3002 RMK A01 T02960142  RH  039%=      5-min Rain = 0
KPG1 040455Z 04008KT 30/14 A3002 RMK A01 T02950142  RH  039%=      5-min Rain = 0
KPG1 040456Z 03007KT 30/14 A3002 RMK A01 T02950141  RH  039%=      5-min Rain = 0
KPG1 040457Z 04008KT 30/14 A3002 RMK A01 T02950141  RH  039%=      5-min Rain = 0
KPG1 040458Z 03009KT 30/14 A3002 RMK A01 T02950141  RH  039%=      5-min Rain = 0
KPG1 040459Z 03009KT 29/14 A3002 RMK A01 T02940141  RH  039%=      5-min Rain = 0

Page generated in 0.0775 seconds.